<?xml version="1.0" encoding="UTF-8" standalone="no" ?>
<gpx xmlns="http://www.topografix.com/GPX/1/1" xmlns:xsi="http://www.w3.org/2001/XMLSchema-instance" xsi:schemaLocation="http://www.topografix.com/GPX/1/1 http://www.topografix.com/GPX/1/1/gpx.xsd" version="1.1" creator="VisuGPX - https://www.visugpx.com">
  <metadata>
    <name>Les pas du diable... le puis à balancier</name>
    <desc><![CDATA[Balade avec Benoît, il me manque quelques points dû à une défaillance du gps du téléphone...]]></desc>
  </metadata>
  <wpt lat="47.47046" lon="6.96347">
    <ele>524</ele>
    <name><![CDATA[0000048]]></name>
  </wpt>
  <wpt lat="47.45766" lon="6.93781">
    <ele>581</ele>
    <name><![CDATA[0000049]]></name>
  </wpt>
  <wpt lat="47.47062" lon="6.96333">
    <ele>527</ele>
    <name><![CDATA[0000050]]></name>
  </wpt>
  <trk>
    <name><![CDATA[2018-04-21 15:28]]></name>
    <trkseg>
      <trkpt lat="47.47046" lon="6.96347">
        <ele>524</ele>
        <time>2018-04-21T13:28:35Z</time>
      </trkpt>
      <trkpt lat="47.47027" lon="6.96349">
        <ele>522</ele>
        <time>2018-04-21T13:29:03Z</time>
      </trkpt>
      <trkpt lat="47.47011" lon="6.96364">
        <ele>522</ele>
        <time>2018-04-21T13:29:23Z</time>
      </trkpt>
      <trkpt lat="47.46997" lon="6.96386">
        <ele>514</ele>
        <time>2018-04-21T13:29:41Z</time>
      </trkpt>
      <trkpt lat="47.46984" lon="6.96407">
        <ele>514</ele>
        <time>2018-04-21T13:29:59Z</time>
      </trkpt>
      <trkpt lat="47.46972" lon="6.96431">
        <ele>510</ele>
        <time>2018-04-21T13:30:15Z</time>
      </trkpt>
      <trkpt lat="47.46967" lon="6.96457">
        <ele>509</ele>
        <time>2018-04-21T13:30:29Z</time>
      </trkpt>
      <trkpt lat="47.46964" lon="6.96484">
        <ele>509</ele>
        <time>2018-04-21T13:30:43Z</time>
      </trkpt>
      <trkpt lat="47.46959" lon="6.96511">
        <ele>505</ele>
        <time>2018-04-21T13:30:57Z</time>
      </trkpt>
      <trkpt lat="47.46959" lon="6.96539">
        <ele>504</ele>
        <time>2018-04-21T13:31:11Z</time>
      </trkpt>
      <trkpt lat="47.46958" lon="6.96568">
        <ele>503</ele>
        <time>2018-04-21T13:31:27Z</time>
      </trkpt>
      <trkpt lat="47.46957" lon="6.96596">
        <ele>498</ele>
        <time>2018-04-21T13:31:41Z</time>
      </trkpt>
      <trkpt lat="47.46955" lon="6.96625">
        <ele>497</ele>
        <time>2018-04-21T13:31:55Z</time>
      </trkpt>
      <trkpt lat="47.46953" lon="6.96656">
        <ele>495</ele>
        <time>2018-04-21T13:32:09Z</time>
      </trkpt>
      <trkpt lat="47.46949" lon="6.96686">
        <ele>490</ele>
        <time>2018-04-21T13:32:25Z</time>
      </trkpt>
      <trkpt lat="47.46935" lon="6.96704">
        <ele>489</ele>
        <time>2018-04-21T13:32:37Z</time>
      </trkpt>
      <trkpt lat="47.46917" lon="6.96711">
        <ele>488</ele>
        <time>2018-04-21T13:32:51Z</time>
      </trkpt>
      <trkpt lat="47.46898" lon="6.96706">
        <ele>486</ele>
        <time>2018-04-21T13:33:03Z</time>
      </trkpt>
      <trkpt lat="47.46879" lon="6.96709">
        <ele>486</ele>
        <time>2018-04-21T13:33:17Z</time>
      </trkpt>
      <trkpt lat="47.46866" lon="6.96729">
        <ele>485</ele>
        <time>2018-04-21T13:33:33Z</time>
      </trkpt>
      <trkpt lat="47.4686" lon="6.96755">
        <ele>475</ele>
        <time>2018-04-21T13:33:47Z</time>
      </trkpt>
      <trkpt lat="47.46849" lon="6.96777">
        <ele>474</ele>
        <time>2018-04-21T13:34:01Z</time>
      </trkpt>
      <trkpt lat="47.46832" lon="6.96794">
        <ele>475</ele>
        <time>2018-04-21T13:34:15Z</time>
      </trkpt>
      <trkpt lat="47.46812" lon="6.96804">
        <ele>474</ele>
        <time>2018-04-21T13:34:30Z</time>
      </trkpt>
      <trkpt lat="47.46793" lon="6.96821">
        <ele>475</ele>
        <time>2018-04-21T13:34:42Z</time>
      </trkpt>
      <trkpt lat="47.46775" lon="6.9683">
        <ele>476</ele>
        <time>2018-04-21T13:34:54Z</time>
      </trkpt>
      <trkpt lat="47.46758" lon="6.96844">
        <ele>469</ele>
        <time>2018-04-21T13:35:08Z</time>
      </trkpt>
      <trkpt lat="47.46778" lon="6.96846">
        <ele>466</ele>
        <time>2018-04-21T13:35:22Z</time>
      </trkpt>
      <trkpt lat="47.46799" lon="6.9685">
        <ele>463</ele>
        <time>2018-04-21T13:35:36Z</time>
      </trkpt>
      <trkpt lat="47.46817" lon="6.96864">
        <ele>462</ele>
        <time>2018-04-21T13:35:50Z</time>
      </trkpt>
      <trkpt lat="47.4683" lon="6.96884">
        <ele>461</ele>
        <time>2018-04-21T13:36:04Z</time>
      </trkpt>
      <trkpt lat="47.4683" lon="6.96911">
        <ele>457</ele>
        <time>2018-04-21T13:36:18Z</time>
      </trkpt>
      <trkpt lat="47.46828" lon="6.96938">
        <ele>461</ele>
        <time>2018-04-21T13:36:32Z</time>
      </trkpt>
      <trkpt lat="47.46823" lon="6.96966">
        <ele>465</ele>
        <time>2018-04-21T13:36:46Z</time>
      </trkpt>
      <trkpt lat="47.46827" lon="6.96992">
        <ele>466</ele>
        <time>2018-04-21T13:37:00Z</time>
      </trkpt>
      <trkpt lat="47.46843" lon="6.97008">
        <ele>468</ele>
        <time>2018-04-21T13:37:14Z</time>
      </trkpt>
      <trkpt lat="47.46858" lon="6.97027">
        <ele>470</ele>
        <time>2018-04-21T13:37:28Z</time>
      </trkpt>
      <trkpt lat="47.46871" lon="6.97048">
        <ele>472</ele>
        <time>2018-04-21T13:37:42Z</time>
      </trkpt>
      <trkpt lat="47.46884" lon="6.97071">
        <ele>472</ele>
        <time>2018-04-21T13:37:58Z</time>
      </trkpt>
      <trkpt lat="47.46894" lon="6.97094">
        <ele>485</ele>
        <time>2018-04-21T13:38:12Z</time>
      </trkpt>
      <trkpt lat="47.46907" lon="6.97117">
        <ele>488</ele>
        <time>2018-04-21T13:38:28Z</time>
      </trkpt>
      <trkpt lat="47.46918" lon="6.9714">
        <ele>482</ele>
        <time>2018-04-21T13:38:44Z</time>
      </trkpt>
      <trkpt lat="47.46933" lon="6.9716">
        <ele>486</ele>
        <time>2018-04-21T13:39:00Z</time>
      </trkpt>
      <trkpt lat="47.46947" lon="6.97178">
        <ele>495</ele>
        <time>2018-04-21T13:39:20Z</time>
      </trkpt>
      <trkpt lat="47.46963" lon="6.97192">
        <ele>495</ele>
        <time>2018-04-21T13:39:34Z</time>
      </trkpt>
      <trkpt lat="47.46977" lon="6.97212">
        <ele>496</ele>
        <time>2018-04-21T13:39:54Z</time>
      </trkpt>
      <trkpt lat="47.46992" lon="6.97228">
        <ele>498</ele>
        <time>2018-04-21T13:40:10Z</time>
      </trkpt>
      <trkpt lat="47.4701" lon="6.97243">
        <ele>495</ele>
        <time>2018-04-21T13:40:26Z</time>
      </trkpt>
      <trkpt lat="47.47025" lon="6.97259">
        <ele>501</ele>
        <time>2018-04-21T13:40:44Z</time>
      </trkpt>
      <trkpt lat="47.47041" lon="6.97275">
        <ele>500</ele>
        <time>2018-04-21T13:40:58Z</time>
      </trkpt>
      <trkpt lat="47.47054" lon="6.97294">
        <ele>501</ele>
        <time>2018-04-21T13:41:14Z</time>
      </trkpt>
      <trkpt lat="47.47068" lon="6.97316">
        <ele>502</ele>
        <time>2018-04-21T13:41:30Z</time>
      </trkpt>
      <trkpt lat="47.4708" lon="6.97339">
        <ele>504</ele>
        <time>2018-04-21T13:41:44Z</time>
      </trkpt>
      <trkpt lat="47.47086" lon="6.97367">
        <ele>500</ele>
        <time>2018-04-21T13:42:00Z</time>
      </trkpt>
      <trkpt lat="47.47089" lon="6.97395">
        <ele>501</ele>
        <time>2018-04-21T13:42:14Z</time>
      </trkpt>
      <trkpt lat="47.47089" lon="6.97423">
        <ele>503</ele>
        <time>2018-04-21T13:42:28Z</time>
      </trkpt>
      <trkpt lat="47.47087" lon="6.97452">
        <ele>503</ele>
        <time>2018-04-21T13:42:44Z</time>
      </trkpt>
      <trkpt lat="47.47086" lon="6.97482">
        <ele>504</ele>
        <time>2018-04-21T13:42:58Z</time>
      </trkpt>
      <trkpt lat="47.47086" lon="6.9751">
        <ele>507</ele>
        <time>2018-04-21T13:43:12Z</time>
      </trkpt>
      <trkpt lat="47.4708" lon="6.97539">
        <ele>510</ele>
        <time>2018-04-21T13:43:26Z</time>
      </trkpt>
      <trkpt lat="47.47076" lon="6.97566">
        <ele>510</ele>
        <time>2018-04-21T13:43:40Z</time>
      </trkpt>
      <trkpt lat="47.47073" lon="6.97594">
        <ele>511</ele>
        <time>2018-04-21T13:43:54Z</time>
      </trkpt>
      <trkpt lat="47.4707" lon="6.97623">
        <ele>512</ele>
        <time>2018-04-21T13:44:10Z</time>
      </trkpt>
      <trkpt lat="47.47065" lon="6.97651">
        <ele>513</ele>
        <time>2018-04-21T13:44:26Z</time>
      </trkpt>
      <trkpt lat="47.47059" lon="6.97678">
        <ele>513</ele>
        <time>2018-04-21T13:44:42Z</time>
      </trkpt>
      <trkpt lat="47.47053" lon="6.97705">
        <ele>513</ele>
        <time>2018-04-21T13:44:56Z</time>
      </trkpt>
      <trkpt lat="47.47047" lon="6.97732">
        <ele>513</ele>
        <time>2018-04-21T13:45:14Z</time>
      </trkpt>
      <trkpt lat="47.4704" lon="6.9776">
        <ele>511</ele>
        <time>2018-04-21T13:45:32Z</time>
      </trkpt>
      <trkpt lat="47.47039" lon="6.97787">
        <ele>511</ele>
        <time>2018-04-21T13:45:41Z</time>
      </trkpt>
      <trkpt lat="47.47047" lon="6.97813">
        <ele>510</ele>
        <time>2018-04-21T13:45:55Z</time>
      </trkpt>
      <trkpt lat="47.4706" lon="6.97836">
        <ele>508</ele>
        <time>2018-04-21T13:46:09Z</time>
      </trkpt>
      <trkpt lat="47.47067" lon="6.97864">
        <ele>507</ele>
        <time>2018-04-21T13:46:23Z</time>
      </trkpt>
      <trkpt lat="47.47067" lon="6.97892">
        <ele>506</ele>
        <time>2018-04-21T13:46:37Z</time>
      </trkpt>
      <trkpt lat="47.47068" lon="6.97919">
        <ele>504</ele>
        <time>2018-04-21T13:46:51Z</time>
      </trkpt>
      <trkpt lat="47.47067" lon="6.97948">
        <ele>503</ele>
        <time>2018-04-21T13:47:05Z</time>
      </trkpt>
      <trkpt lat="47.47066" lon="6.97975">
        <ele>503</ele>
        <time>2018-04-21T13:47:17Z</time>
      </trkpt>
      <trkpt lat="47.47066" lon="6.98004">
        <ele>503</ele>
        <time>2018-04-21T13:47:33Z</time>
      </trkpt>
      <trkpt lat="47.47067" lon="6.9803">
        <ele>503</ele>
        <time>2018-04-21T13:47:47Z</time>
      </trkpt>
      <trkpt lat="47.47071" lon="6.98058">
        <ele>504</ele>
        <time>2018-04-21T13:48:07Z</time>
      </trkpt>
      <trkpt lat="47.47085" lon="6.98075">
        <ele>505</ele>
        <time>2018-04-21T13:48:23Z</time>
      </trkpt>
      <trkpt lat="47.47101" lon="6.98092">
        <ele>505</ele>
        <time>2018-04-21T13:48:39Z</time>
      </trkpt>
      <trkpt lat="47.47117" lon="6.98103">
        <ele>505</ele>
        <time>2018-04-21T13:48:53Z</time>
      </trkpt>
      <trkpt lat="47.47133" lon="6.98116">
        <ele>505</ele>
        <time>2018-04-21T13:49:05Z</time>
      </trkpt>
      <trkpt lat="47.47151" lon="6.98132">
        <ele>506</ele>
        <time>2018-04-21T13:49:19Z</time>
      </trkpt>
      <trkpt lat="47.47163" lon="6.98154">
        <ele>508</ele>
        <time>2018-04-21T13:49:33Z</time>
      </trkpt>
      <trkpt lat="47.47176" lon="6.98178">
        <ele>509</ele>
        <time>2018-04-21T13:49:47Z</time>
      </trkpt>
      <trkpt lat="47.47181" lon="6.98204">
        <ele>510</ele>
        <time>2018-04-21T13:50:01Z</time>
      </trkpt>
      <trkpt lat="47.47178" lon="6.98233">
        <ele>512</ele>
        <time>2018-04-21T13:50:17Z</time>
      </trkpt>
      <trkpt lat="47.47173" lon="6.98261">
        <ele>515</ele>
        <time>2018-04-21T13:50:31Z</time>
      </trkpt>
      <trkpt lat="47.47166" lon="6.98287">
        <ele>514</ele>
        <time>2018-04-21T13:50:47Z</time>
      </trkpt>
      <trkpt lat="47.47158" lon="6.98315">
        <ele>516</ele>
        <time>2018-04-21T13:51:03Z</time>
      </trkpt>
      <trkpt lat="47.47152" lon="6.9834">
        <ele>517</ele>
        <time>2018-04-21T13:51:19Z</time>
      </trkpt>
      <trkpt lat="47.47143" lon="6.98365">
        <ele>516</ele>
        <time>2018-04-21T13:51:35Z</time>
      </trkpt>
      <trkpt lat="47.47135" lon="6.98393">
        <ele>516</ele>
        <time>2018-04-21T13:51:51Z</time>
      </trkpt>
      <trkpt lat="47.47124" lon="6.98419">
        <ele>517</ele>
        <time>2018-04-21T13:52:07Z</time>
      </trkpt>
      <trkpt lat="47.47115" lon="6.98443">
        <ele>517</ele>
        <time>2018-04-21T13:52:23Z</time>
      </trkpt>
      <trkpt lat="47.47109" lon="6.98471">
        <ele>517</ele>
        <time>2018-04-21T13:52:41Z</time>
      </trkpt>
      <trkpt lat="47.47105" lon="6.98497">
        <ele>516</ele>
        <time>2018-04-21T13:52:57Z</time>
      </trkpt>
      <trkpt lat="47.471" lon="6.98523">
        <ele>518</ele>
        <time>2018-04-21T13:53:11Z</time>
      </trkpt>
      <trkpt lat="47.47092" lon="6.98548">
        <ele>519</ele>
        <time>2018-04-21T13:53:27Z</time>
      </trkpt>
      <trkpt lat="47.47085" lon="6.98573">
        <ele>519</ele>
        <time>2018-04-21T13:53:43Z</time>
      </trkpt>
      <trkpt lat="47.47073" lon="6.98596">
        <ele>517</ele>
        <time>2018-04-21T13:53:55Z</time>
      </trkpt>
      <trkpt lat="47.4706" lon="6.98618">
        <ele>517</ele>
        <time>2018-04-21T13:54:09Z</time>
      </trkpt>
      <trkpt lat="47.47047" lon="6.98639">
        <ele>517</ele>
        <time>2018-04-21T13:54:25Z</time>
      </trkpt>
      <trkpt lat="47.47033" lon="6.98658">
        <ele>517</ele>
        <time>2018-04-21T13:54:39Z</time>
      </trkpt>
      <trkpt lat="47.47014" lon="6.98668">
        <ele>518</ele>
        <time>2018-04-21T13:54:53Z</time>
      </trkpt>
      <trkpt lat="47.46994" lon="6.98676">
        <ele>517</ele>
        <time>2018-04-21T13:55:07Z</time>
      </trkpt>
      <trkpt lat="47.46977" lon="6.98685">
        <ele>519</ele>
        <time>2018-04-21T13:55:33Z</time>
      </trkpt>
      <trkpt lat="47.46958" lon="6.9869">
        <ele>520</ele>
        <time>2018-04-21T13:55:51Z</time>
      </trkpt>
      <trkpt lat="47.4694" lon="6.98682">
        <ele>519</ele>
        <time>2018-04-21T13:56:11Z</time>
      </trkpt>
      <trkpt lat="47.46921" lon="6.98676">
        <ele>518</ele>
        <time>2018-04-21T13:56:27Z</time>
      </trkpt>
      <trkpt lat="47.46905" lon="6.98663">
        <ele>517</ele>
        <time>2018-04-21T13:56:39Z</time>
      </trkpt>
      <trkpt lat="47.46886" lon="6.98653">
        <ele>518</ele>
        <time>2018-04-21T13:56:53Z</time>
      </trkpt>
      <trkpt lat="47.46867" lon="6.98644">
        <ele>518</ele>
        <time>2018-04-21T13:57:09Z</time>
      </trkpt>
      <trkpt lat="47.46848" lon="6.98636">
        <ele>519</ele>
        <time>2018-04-21T13:57:23Z</time>
      </trkpt>
      <trkpt lat="47.46829" lon="6.98622">
        <ele>522</ele>
        <time>2018-04-21T13:57:37Z</time>
      </trkpt>
      <trkpt lat="47.46811" lon="6.98606">
        <ele>521</ele>
        <time>2018-04-21T13:57:51Z</time>
      </trkpt>
      <trkpt lat="47.46796" lon="6.9859">
        <ele>522</ele>
        <time>2018-04-21T13:58:03Z</time>
      </trkpt>
      <trkpt lat="47.4678" lon="6.98577">
        <ele>520</ele>
        <time>2018-04-21T13:58:17Z</time>
      </trkpt>
      <trkpt lat="47.46762" lon="6.98573">
        <ele>521</ele>
        <time>2018-04-21T13:58:37Z</time>
      </trkpt>
      <trkpt lat="47.46742" lon="6.98566">
        <ele>523</ele>
        <time>2018-04-21T13:59:15Z</time>
      </trkpt>
      <trkpt lat="47.46725" lon="6.98575">
        <ele>524</ele>
        <time>2018-04-21T13:59:33Z</time>
      </trkpt>
      <trkpt lat="47.46707" lon="6.98571">
        <ele>525</ele>
        <time>2018-04-21T13:59:47Z</time>
      </trkpt>
      <trkpt lat="47.46688" lon="6.98577">
        <ele>526</ele>
        <time>2018-04-21T13:59:57Z</time>
      </trkpt>
      <trkpt lat="47.46672" lon="6.98594">
        <ele>529</ele>
        <time>2018-04-21T14:00:09Z</time>
      </trkpt>
      <trkpt lat="47.46661" lon="6.98616">
        <ele>533</ele>
        <time>2018-04-21T14:00:23Z</time>
      </trkpt>
      <trkpt lat="47.46659" lon="6.98643">
        <ele>533</ele>
        <time>2018-04-21T14:00:41Z</time>
      </trkpt>
      <trkpt lat="47.46651" lon="6.98669">
        <ele>533</ele>
        <time>2018-04-21T14:00:57Z</time>
      </trkpt>
      <trkpt lat="47.46649" lon="6.98698">
        <ele>533</ele>
        <time>2018-04-21T14:01:15Z</time>
      </trkpt>
      <trkpt lat="47.46639" lon="6.98723">
        <ele>533</ele>
        <time>2018-04-21T14:01:53Z</time>
      </trkpt>
      <trkpt lat="47.46624" lon="6.98736">
        <ele>533</ele>
        <time>2018-04-21T14:02:21Z</time>
      </trkpt>
      <trkpt lat="47.46603" lon="6.98738">
        <ele>534</ele>
        <time>2018-04-21T14:02:39Z</time>
      </trkpt>
      <trkpt lat="47.46585" lon="6.98738">
        <ele>534</ele>
        <time>2018-04-21T14:02:59Z</time>
      </trkpt>
      <trkpt lat="47.46566" lon="6.9874">
        <ele>537</ele>
        <time>2018-04-21T14:03:17Z</time>
      </trkpt>
      <trkpt lat="47.46549" lon="6.98746">
        <ele>538</ele>
        <time>2018-04-21T14:03:41Z</time>
      </trkpt>
      <trkpt lat="47.46529" lon="6.98746">
        <ele>539</ele>
        <time>2018-04-21T14:03:57Z</time>
      </trkpt>
      <trkpt lat="47.4651" lon="6.9875">
        <ele>539</ele>
        <time>2018-04-21T14:04:17Z</time>
      </trkpt>
      <trkpt lat="47.46488" lon="6.98754">
        <ele>541</ele>
        <time>2018-04-21T14:04:39Z</time>
      </trkpt>
      <trkpt lat="47.4647" lon="6.98765">
        <ele>542</ele>
        <time>2018-04-21T14:04:59Z</time>
      </trkpt>
      <trkpt lat="47.46453" lon="6.98779">
        <ele>542</ele>
        <time>2018-04-21T14:05:15Z</time>
      </trkpt>
      <trkpt lat="47.46439" lon="6.98796">
        <ele>542</ele>
        <time>2018-04-21T14:05:29Z</time>
      </trkpt>
      <trkpt lat="47.46423" lon="6.9881">
        <ele>542</ele>
        <time>2018-04-21T14:05:43Z</time>
      </trkpt>
      <trkpt lat="47.46408" lon="6.98827">
        <ele>544</ele>
        <time>2018-04-21T14:05:59Z</time>
      </trkpt>
      <trkpt lat="47.46389" lon="6.98823">
        <ele>546</ele>
        <time>2018-04-21T14:06:21Z</time>
      </trkpt>
      <trkpt lat="47.46378" lon="6.98801">
        <ele>548</ele>
        <time>2018-04-21T14:06:37Z</time>
      </trkpt>
      <trkpt lat="47.46366" lon="6.98776">
        <ele>549</ele>
        <time>2018-04-21T14:07:00Z</time>
      </trkpt>
      <trkpt lat="47.46349" lon="6.98759">
        <ele>551</ele>
        <time>2018-04-21T14:07:20Z</time>
      </trkpt>
      <trkpt lat="47.46335" lon="6.98742">
        <ele>555</ele>
        <time>2018-04-21T14:07:34Z</time>
      </trkpt>
      <trkpt lat="47.46323" lon="6.9872">
        <ele>559</ele>
        <time>2018-04-21T14:07:46Z</time>
      </trkpt>
      <trkpt lat="47.46307" lon="6.98705">
        <ele>560</ele>
        <time>2018-04-21T14:08:08Z</time>
      </trkpt>
      <trkpt lat="47.46293" lon="6.98684">
        <ele>562</ele>
        <time>2018-04-21T14:08:22Z</time>
      </trkpt>
      <trkpt lat="47.46281" lon="6.98664">
        <ele>567</ele>
        <time>2018-04-21T14:08:40Z</time>
      </trkpt>
      <trkpt lat="47.46266" lon="6.98646">
        <ele>567</ele>
        <time>2018-04-21T14:09:00Z</time>
      </trkpt>
      <trkpt lat="47.46251" lon="6.98631">
        <ele>567</ele>
        <time>2018-04-21T14:09:16Z</time>
      </trkpt>
      <trkpt lat="47.46234" lon="6.98618">
        <ele>567</ele>
        <time>2018-04-21T14:09:32Z</time>
      </trkpt>
      <trkpt lat="47.46218" lon="6.98604">
        <ele>567</ele>
        <time>2018-04-21T14:09:46Z</time>
      </trkpt>
      <trkpt lat="47.46202" lon="6.98582">
        <ele>569</ele>
        <time>2018-04-21T14:10:06Z</time>
      </trkpt>
      <trkpt lat="47.46186" lon="6.98563">
        <ele>569</ele>
        <time>2018-04-21T14:10:22Z</time>
      </trkpt>
      <trkpt lat="47.46169" lon="6.98549">
        <ele>569</ele>
        <time>2018-04-21T14:10:38Z</time>
      </trkpt>
      <trkpt lat="47.46152" lon="6.98528">
        <ele>567</ele>
        <time>2018-04-21T14:11:00Z</time>
      </trkpt>
      <trkpt lat="47.46136" lon="6.98514">
        <ele>567</ele>
        <time>2018-04-21T14:11:16Z</time>
      </trkpt>
      <trkpt lat="47.46117" lon="6.98498">
        <ele>571</ele>
        <time>2018-04-21T14:11:28Z</time>
      </trkpt>
      <trkpt lat="47.46097" lon="6.98489">
        <ele>570</ele>
        <time>2018-04-21T14:11:38Z</time>
      </trkpt>
      <trkpt lat="47.46081" lon="6.98476">
        <ele>571</ele>
        <time>2018-04-21T14:11:52Z</time>
      </trkpt>
      <trkpt lat="47.46095" lon="6.98456">
        <ele>571</ele>
        <time>2018-04-21T14:12:52Z</time>
      </trkpt>
      <trkpt lat="47.46109" lon="6.98434">
        <ele>572</ele>
        <time>2018-04-21T14:13:10Z</time>
      </trkpt>
      <trkpt lat="47.46115" lon="6.98409">
        <ele>574</ele>
        <time>2018-04-21T14:13:26Z</time>
      </trkpt>
      <trkpt lat="47.46114" lon="6.98379">
        <ele>574</ele>
        <time>2018-04-21T14:13:44Z</time>
      </trkpt>
      <trkpt lat="47.46118" lon="6.98347">
        <ele>575</ele>
        <time>2018-04-21T14:13:58Z</time>
      </trkpt>
      <trkpt lat="47.46127" lon="6.98322">
        <ele>577</ele>
        <time>2018-04-21T14:14:12Z</time>
      </trkpt>
      <trkpt lat="47.4614" lon="6.98301">
        <ele>578</ele>
        <time>2018-04-21T14:14:26Z</time>
      </trkpt>
      <trkpt lat="47.46155" lon="6.98284">
        <ele>578</ele>
        <time>2018-04-21T14:14:42Z</time>
      </trkpt>
      <trkpt lat="47.4617" lon="6.98266">
        <ele>578</ele>
        <time>2018-04-21T14:15:04Z</time>
      </trkpt>
      <trkpt lat="47.46178" lon="6.98242">
        <ele>580</ele>
        <time>2018-04-21T14:15:28Z</time>
      </trkpt>
      <trkpt lat="47.46176" lon="6.98215">
        <ele>580</ele>
        <time>2018-04-21T14:15:44Z</time>
      </trkpt>
      <trkpt lat="47.4618" lon="6.98185">
        <ele>581</ele>
        <time>2018-04-21T14:16:02Z</time>
      </trkpt>
      <trkpt lat="47.46175" lon="6.98158">
        <ele>582</ele>
        <time>2018-04-21T14:16:20Z</time>
      </trkpt>
      <trkpt lat="47.46177" lon="6.9813">
        <ele>581</ele>
        <time>2018-04-21T14:16:44Z</time>
      </trkpt>
      <trkpt lat="47.46172" lon="6.98103">
        <ele>581</ele>
        <time>2018-04-21T14:17:12Z</time>
      </trkpt>
      <trkpt lat="47.4616" lon="6.9808">
        <ele>581</ele>
        <time>2018-04-21T14:17:40Z</time>
      </trkpt>
      <trkpt lat="47.46161" lon="6.98053">
        <ele>581</ele>
        <time>2018-04-21T14:18:02Z</time>
      </trkpt>
      <trkpt lat="47.46146" lon="6.98036">
        <ele>581</ele>
        <time>2018-04-21T14:18:22Z</time>
      </trkpt>
      <trkpt lat="47.46133" lon="6.98016">
        <ele>581</ele>
        <time>2018-04-21T14:18:40Z</time>
      </trkpt>
      <trkpt lat="47.46122" lon="6.97993">
        <ele>582</ele>
        <time>2018-04-21T14:18:56Z</time>
      </trkpt>
      <trkpt lat="47.46109" lon="6.97967">
        <ele>581</ele>
        <time>2018-04-21T14:19:10Z</time>
      </trkpt>
      <trkpt lat="47.461" lon="6.97944">
        <ele>582</ele>
        <time>2018-04-21T14:19:20Z</time>
      </trkpt>
      <trkpt lat="47.46089" lon="6.97921">
        <ele>582</ele>
        <time>2018-04-21T14:19:30Z</time>
      </trkpt>
      <trkpt lat="47.46078" lon="6.97895">
        <ele>581</ele>
        <time>2018-04-21T14:19:42Z</time>
      </trkpt>
      <trkpt lat="47.46068" lon="6.97868">
        <ele>581</ele>
        <time>2018-04-21T14:19:54Z</time>
      </trkpt>
      <trkpt lat="47.4606" lon="6.97844">
        <ele>581</ele>
        <time>2018-04-21T14:20:04Z</time>
      </trkpt>
      <trkpt lat="47.46048" lon="6.97822">
        <ele>581</ele>
        <time>2018-04-21T14:20:14Z</time>
      </trkpt>
      <trkpt lat="47.46036" lon="6.97798">
        <ele>581</ele>
        <time>2018-04-21T14:20:30Z</time>
      </trkpt>
      <trkpt lat="47.46027" lon="6.97771">
        <ele>581</ele>
        <time>2018-04-21T14:20:46Z</time>
      </trkpt>
      <trkpt lat="47.46016" lon="6.9775">
        <ele>581</ele>
        <time>2018-04-21T14:21:00Z</time>
      </trkpt>
      <trkpt lat="47.46008" lon="6.97725">
        <ele>581</ele>
        <time>2018-04-21T14:21:14Z</time>
      </trkpt>
      <trkpt lat="47.45991" lon="6.97718">
        <ele>582</ele>
        <time>2018-04-21T14:21:26Z</time>
      </trkpt>
      <trkpt lat="47.4597" lon="6.97722">
        <ele>582</ele>
        <time>2018-04-21T14:21:40Z</time>
      </trkpt>
      <trkpt lat="47.45953" lon="6.97712">
        <ele>582</ele>
        <time>2018-04-21T14:21:54Z</time>
      </trkpt>
      <trkpt lat="47.45939" lon="6.97691">
        <ele>582</ele>
        <time>2018-04-21T14:22:06Z</time>
      </trkpt>
      <trkpt lat="47.45927" lon="6.97667">
        <ele>583</ele>
        <time>2018-04-21T14:22:18Z</time>
      </trkpt>
      <trkpt lat="47.45919" lon="6.9764">
        <ele>583</ele>
        <time>2018-04-21T14:22:30Z</time>
      </trkpt>
      <trkpt lat="47.45908" lon="6.97616">
        <ele>583</ele>
        <time>2018-04-21T14:22:42Z</time>
      </trkpt>
      <trkpt lat="47.45899" lon="6.9759">
        <ele>583</ele>
        <time>2018-04-21T14:22:54Z</time>
      </trkpt>
      <trkpt lat="47.45881" lon="6.97584">
        <ele>583</ele>
        <time>2018-04-21T14:23:12Z</time>
      </trkpt>
      <trkpt lat="47.45865" lon="6.97601">
        <ele>583</ele>
        <time>2018-04-21T14:23:26Z</time>
      </trkpt>
      <trkpt lat="47.45847" lon="6.97615">
        <ele>583</ele>
        <time>2018-04-21T14:23:42Z</time>
      </trkpt>
      <trkpt lat="47.4583" lon="6.97627">
        <ele>585</ele>
        <time>2018-04-21T14:23:56Z</time>
      </trkpt>
      <trkpt lat="47.4582" lon="6.97603">
        <ele>584</ele>
        <time>2018-04-21T14:24:20Z</time>
      </trkpt>
      <trkpt lat="47.45816" lon="6.97576">
        <ele>583</ele>
        <time>2018-04-21T14:24:36Z</time>
      </trkpt>
      <trkpt lat="47.45817" lon="6.97547">
        <ele>583</ele>
        <time>2018-04-21T14:24:50Z</time>
      </trkpt>
      <trkpt lat="47.45818" lon="6.97519">
        <ele>583</ele>
        <time>2018-04-21T14:25:04Z</time>
      </trkpt>
      <trkpt lat="47.45814" lon="6.97492">
        <ele>583</ele>
        <time>2018-04-21T14:25:18Z</time>
      </trkpt>
      <trkpt lat="47.4581" lon="6.97464">
        <ele>584</ele>
        <time>2018-04-21T14:25:32Z</time>
      </trkpt>
      <trkpt lat="47.45804" lon="6.97437">
        <ele>584</ele>
        <time>2018-04-21T14:25:46Z</time>
      </trkpt>
      <trkpt lat="47.45803" lon="6.9741">
        <ele>584</ele>
        <time>2018-04-21T14:25:58Z</time>
      </trkpt>
      <trkpt lat="47.458" lon="6.97379">
        <ele>584</ele>
        <time>2018-04-21T14:26:12Z</time>
      </trkpt>
      <trkpt lat="47.45798" lon="6.97351">
        <ele>583</ele>
        <time>2018-04-21T14:26:30Z</time>
      </trkpt>
      <trkpt lat="47.45795" lon="6.97322">
        <ele>579</ele>
        <time>2018-04-21T14:26:46Z</time>
      </trkpt>
      <trkpt lat="47.45792" lon="6.97295">
        <ele>578</ele>
        <time>2018-04-21T14:27:02Z</time>
      </trkpt>
      <trkpt lat="47.45789" lon="6.97266">
        <ele>577</ele>
        <time>2018-04-21T14:27:18Z</time>
      </trkpt>
      <trkpt lat="47.45785" lon="6.97239">
        <ele>571</ele>
        <time>2018-04-21T14:27:34Z</time>
      </trkpt>
      <trkpt lat="47.45779" lon="6.97212">
        <ele>570</ele>
        <time>2018-04-21T14:27:50Z</time>
      </trkpt>
      <trkpt lat="47.45781" lon="6.97184">
        <ele>568</ele>
        <time>2018-04-21T14:28:08Z</time>
      </trkpt>
      <trkpt lat="47.45779" lon="6.97154">
        <ele>564</ele>
        <time>2018-04-21T14:28:22Z</time>
      </trkpt>
      <trkpt lat="47.45777" lon="6.97126">
        <ele>564</ele>
        <time>2018-04-21T14:28:34Z</time>
      </trkpt>
      <trkpt lat="47.45776" lon="6.97097">
        <ele>563</ele>
        <time>2018-04-21T14:28:48Z</time>
      </trkpt>
      <trkpt lat="47.45774" lon="6.97068">
        <ele>560</ele>
        <time>2018-04-21T14:29:00Z</time>
      </trkpt>
      <trkpt lat="47.45779" lon="6.97041">
        <ele>559</ele>
        <time>2018-04-21T14:29:42Z</time>
      </trkpt>
      <trkpt lat="47.45785" lon="6.97015">
        <ele>559</ele>
        <time>2018-04-21T14:30:08Z</time>
      </trkpt>
      <trkpt lat="47.45769" lon="6.96997">
        <ele>553</ele>
        <time>2018-04-21T14:31:18Z</time>
      </trkpt>
      <trkpt lat="47.4575" lon="6.96987">
        <ele>553</ele>
        <time>2018-04-21T14:31:32Z</time>
      </trkpt>
      <trkpt lat="47.45732" lon="6.9698">
        <ele>554</ele>
        <time>2018-04-21T14:31:47Z</time>
      </trkpt>
      <trkpt lat="47.45716" lon="6.96963">
        <ele>554</ele>
        <time>2018-04-21T14:32:01Z</time>
      </trkpt>
      <trkpt lat="47.45699" lon="6.96951">
        <ele>554</ele>
        <time>2018-04-21T14:32:15Z</time>
      </trkpt>
      <trkpt lat="47.45682" lon="6.96937">
        <ele>554</ele>
        <time>2018-04-21T14:32:31Z</time>
      </trkpt>
      <trkpt lat="47.45671" lon="6.96914">
        <ele>552</ele>
        <time>2018-04-21T14:32:45Z</time>
      </trkpt>
      <trkpt lat="47.45653" lon="6.96898">
        <ele>557</ele>
        <time>2018-04-21T14:32:59Z</time>
      </trkpt>
      <trkpt lat="47.45634" lon="6.96888">
        <ele>559</ele>
        <time>2018-04-21T14:33:13Z</time>
      </trkpt>
      <trkpt lat="47.45616" lon="6.9688">
        <ele>561</ele>
        <time>2018-04-21T14:33:29Z</time>
      </trkpt>
      <trkpt lat="47.45598" lon="6.96879">
        <ele>564</ele>
        <time>2018-04-21T14:33:49Z</time>
      </trkpt>
      <trkpt lat="47.4558" lon="6.96885">
        <ele>577</ele>
        <time>2018-04-21T14:34:05Z</time>
      </trkpt>
      <trkpt lat="47.45561" lon="6.96885">
        <ele>578</ele>
        <time>2018-04-21T14:34:17Z</time>
      </trkpt>
      <trkpt lat="47.45543" lon="6.96881">
        <ele>578</ele>
        <time>2018-04-21T14:34:33Z</time>
      </trkpt>
      <trkpt lat="47.45525" lon="6.96879">
        <ele>580</ele>
        <time>2018-04-21T14:34:47Z</time>
      </trkpt>
      <trkpt lat="47.45506" lon="6.96877">
        <ele>580</ele>
        <time>2018-04-21T14:35:01Z</time>
      </trkpt>
      <trkpt lat="47.45488" lon="6.96875">
        <ele>587</ele>
        <time>2018-04-21T14:35:13Z</time>
      </trkpt>
      <trkpt lat="47.45468" lon="6.96871">
        <ele>587</ele>
        <time>2018-04-21T14:35:27Z</time>
      </trkpt>
      <trkpt lat="47.45449" lon="6.96874">
        <ele>588</ele>
        <time>2018-04-21T14:35:41Z</time>
      </trkpt>
      <trkpt lat="47.45428" lon="6.96874">
        <ele>589</ele>
        <time>2018-04-21T14:35:53Z</time>
      </trkpt>
      <trkpt lat="47.45407" lon="6.96877">
        <ele>594</ele>
        <time>2018-04-21T14:36:13Z</time>
      </trkpt>
      <trkpt lat="47.45388" lon="6.96873">
        <ele>594</ele>
        <time>2018-04-21T14:36:23Z</time>
      </trkpt>
      <trkpt lat="47.4537" lon="6.96867">
        <ele>594</ele>
        <time>2018-04-21T14:36:35Z</time>
      </trkpt>
      <trkpt lat="47.45351" lon="6.96861">
        <ele>594</ele>
        <time>2018-04-21T14:36:51Z</time>
      </trkpt>
      <trkpt lat="47.45332" lon="6.96853">
        <ele>595</ele>
        <time>2018-04-21T14:37:11Z</time>
      </trkpt>
      <trkpt lat="47.45314" lon="6.9685">
        <ele>595</ele>
        <time>2018-04-21T14:37:25Z</time>
      </trkpt>
      <trkpt lat="47.45294" lon="6.96845">
        <ele>595</ele>
        <time>2018-04-21T14:37:41Z</time>
      </trkpt>
      <trkpt lat="47.45277" lon="6.96833">
        <ele>588</ele>
        <time>2018-04-21T14:37:57Z</time>
      </trkpt>
      <trkpt lat="47.45259" lon="6.96828">
        <ele>590</ele>
        <time>2018-04-21T14:38:13Z</time>
      </trkpt>
      <trkpt lat="47.45238" lon="6.96827">
        <ele>590</ele>
        <time>2018-04-21T14:38:25Z</time>
      </trkpt>
      <trkpt lat="47.45217" lon="6.96827">
        <ele>590</ele>
        <time>2018-04-21T14:38:35Z</time>
      </trkpt>
      <trkpt lat="47.45199" lon="6.96825">
        <ele>590</ele>
        <time>2018-04-21T14:38:47Z</time>
      </trkpt>
      <trkpt lat="47.4518" lon="6.96827">
        <ele>592</ele>
        <time>2018-04-21T14:38:59Z</time>
      </trkpt>
      <trkpt lat="47.45159" lon="6.96829">
        <ele>593</ele>
        <time>2018-04-21T14:39:11Z</time>
      </trkpt>
      <trkpt lat="47.4514" lon="6.96827">
        <ele>590</ele>
        <time>2018-04-21T14:39:25Z</time>
      </trkpt>
      <trkpt lat="47.45121" lon="6.96829">
        <ele>589</ele>
        <time>2018-04-21T14:39:43Z</time>
      </trkpt>
      <trkpt lat="47.45102" lon="6.9683">
        <ele>589</ele>
        <time>2018-04-21T14:39:55Z</time>
      </trkpt>
      <trkpt lat="47.45107" lon="6.96856">
        <ele>594</ele>
        <time>2018-04-21T14:40:45Z</time>
      </trkpt>
      <trkpt lat="47.45104" lon="6.96884">
        <ele>595</ele>
        <time>2018-04-21T14:41:09Z</time>
      </trkpt>
      <trkpt lat="47.45101" lon="6.96912">
        <ele>595</ele>
        <time>2018-04-21T14:41:31Z</time>
      </trkpt>
      <trkpt lat="47.4509" lon="6.96936">
        <ele>599</ele>
        <time>2018-04-21T14:41:49Z</time>
      </trkpt>
      <trkpt lat="47.45078" lon="6.96957">
        <ele>598</ele>
        <time>2018-04-21T14:42:11Z</time>
      </trkpt>
      <trkpt lat="47.45068" lon="6.9698">
        <ele>599</ele>
        <time>2018-04-21T14:42:32Z</time>
      </trkpt>
      <trkpt lat="47.45054" lon="6.97001">
        <ele>604</ele>
        <time>2018-04-21T14:43:06Z</time>
      </trkpt>
      <trkpt lat="47.45042" lon="6.97023">
        <ele>604</ele>
        <time>2018-04-21T14:43:28Z</time>
      </trkpt>
      <trkpt lat="47.45026" lon="6.97035">
        <ele>604</ele>
        <time>2018-04-21T14:44:10Z</time>
      </trkpt>
      <trkpt lat="47.45016" lon="6.97057">
        <ele>605</ele>
        <time>2018-04-21T14:44:34Z</time>
      </trkpt>
      <trkpt lat="47.44996" lon="6.97056">
        <ele>604</ele>
        <time>2018-04-21T14:44:52Z</time>
      </trkpt>
      <trkpt lat="47.44977" lon="6.97051">
        <ele>603</ele>
        <time>2018-04-21T14:45:10Z</time>
      </trkpt>
      <trkpt lat="47.44956" lon="6.97047">
        <ele>603</ele>
        <time>2018-04-21T14:45:28Z</time>
      </trkpt>
      <trkpt lat="47.44938" lon="6.97043">
        <ele>603</ele>
        <time>2018-04-21T14:45:40Z</time>
      </trkpt>
      <trkpt lat="47.44918" lon="6.9704">
        <ele>603</ele>
        <time>2018-04-21T14:45:54Z</time>
      </trkpt>
      <trkpt lat="47.449" lon="6.9704">
        <ele>607</ele>
        <time>2018-04-21T14:46:08Z</time>
      </trkpt>
      <trkpt lat="47.44881" lon="6.97037">
        <ele>608</ele>
        <time>2018-04-21T14:46:22Z</time>
      </trkpt>
      <trkpt lat="47.44861" lon="6.97033">
        <ele>609</ele>
        <time>2018-04-21T14:46:36Z</time>
      </trkpt>
      <trkpt lat="47.4484" lon="6.97033">
        <ele>610</ele>
        <time>2018-04-21T14:46:52Z</time>
      </trkpt>
      <trkpt lat="47.44822" lon="6.9702">
        <ele>612</ele>
        <time>2018-04-21T14:47:04Z</time>
      </trkpt>
      <trkpt lat="47.44803" lon="6.97015">
        <ele>611</ele>
        <time>2018-04-21T14:47:16Z</time>
      </trkpt>
      <trkpt lat="47.44784" lon="6.97014">
        <ele>611</ele>
        <time>2018-04-21T14:47:32Z</time>
      </trkpt>
      <trkpt lat="47.4478" lon="6.9704">
        <ele>611</ele>
        <time>2018-04-21T14:47:58Z</time>
      </trkpt>
      <trkpt lat="47.44775" lon="6.97067">
        <ele>611</ele>
        <time>2018-04-21T14:48:20Z</time>
      </trkpt>
      <trkpt lat="47.44757" lon="6.97074">
        <ele>610</ele>
        <time>2018-04-21T14:48:42Z</time>
      </trkpt>
      <trkpt lat="47.44738" lon="6.97064">
        <ele>610</ele>
        <time>2018-04-21T14:48:58Z</time>
      </trkpt>
      <trkpt lat="47.44721" lon="6.97056">
        <ele>610</ele>
        <time>2018-04-21T14:49:12Z</time>
      </trkpt>
      <trkpt lat="47.44703" lon="6.97047">
        <ele>610</ele>
        <time>2018-04-21T14:49:26Z</time>
      </trkpt>
      <trkpt lat="47.44686" lon="6.97038">
        <ele>610</ele>
        <time>2018-04-21T14:49:38Z</time>
      </trkpt>
      <trkpt lat="47.44666" lon="6.9703">
        <ele>611</ele>
        <time>2018-04-21T14:49:52Z</time>
      </trkpt>
      <trkpt lat="47.44648" lon="6.97019">
        <ele>611</ele>
        <time>2018-04-21T14:50:06Z</time>
      </trkpt>
      <trkpt lat="47.4463" lon="6.97008">
        <ele>611</ele>
        <time>2018-04-21T14:50:20Z</time>
      </trkpt>
      <trkpt lat="47.44613" lon="6.96996">
        <ele>610</ele>
        <time>2018-04-21T14:50:34Z</time>
      </trkpt>
      <trkpt lat="47.44595" lon="6.96987">
        <ele>610</ele>
        <time>2018-04-21T14:50:48Z</time>
      </trkpt>
      <trkpt lat="47.44576" lon="6.96977">
        <ele>610</ele>
        <time>2018-04-21T14:51:02Z</time>
      </trkpt>
      <trkpt lat="47.44559" lon="6.96964">
        <ele>610</ele>
        <time>2018-04-21T14:51:16Z</time>
      </trkpt>
      <trkpt lat="47.4454" lon="6.96953">
        <ele>610</ele>
        <time>2018-04-21T14:51:30Z</time>
      </trkpt>
      <trkpt lat="47.44523" lon="6.96945">
        <ele>610</ele>
        <time>2018-04-21T14:51:42Z</time>
      </trkpt>
      <trkpt lat="47.44506" lon="6.96937">
        <ele>610</ele>
        <time>2018-04-21T14:51:54Z</time>
      </trkpt>
      <trkpt lat="47.44488" lon="6.96927">
        <ele>610</ele>
        <time>2018-04-21T14:52:06Z</time>
      </trkpt>
      <trkpt lat="47.44471" lon="6.96911">
        <ele>609</ele>
        <time>2018-04-21T14:52:20Z</time>
      </trkpt>
      <trkpt lat="47.44454" lon="6.96898">
        <ele>609</ele>
        <time>2018-04-21T14:52:34Z</time>
      </trkpt>
      <trkpt lat="47.44435" lon="6.96893">
        <ele>609</ele>
        <time>2018-04-21T14:52:46Z</time>
      </trkpt>
      <trkpt lat="47.44417" lon="6.96892">
        <ele>609</ele>
        <time>2018-04-21T14:52:56Z</time>
      </trkpt>
      <trkpt lat="47.44399" lon="6.96885">
        <ele>609</ele>
        <time>2018-04-21T14:53:08Z</time>
      </trkpt>
      <trkpt lat="47.44383" lon="6.96868">
        <ele>609</ele>
        <time>2018-04-21T14:53:22Z</time>
      </trkpt>
      <trkpt lat="47.44371" lon="6.96846">
        <ele>608</ele>
        <time>2018-04-21T14:53:36Z</time>
      </trkpt>
      <trkpt lat="47.44362" lon="6.96821">
        <ele>607</ele>
        <time>2018-04-21T14:53:50Z</time>
      </trkpt>
      <trkpt lat="47.44353" lon="6.96797">
        <ele>606</ele>
        <time>2018-04-21T14:54:02Z</time>
      </trkpt>
      <trkpt lat="47.44345" lon="6.96773">
        <ele>605</ele>
        <time>2018-04-21T14:54:14Z</time>
      </trkpt>
      <trkpt lat="47.44337" lon="6.96749">
        <ele>602</ele>
        <time>2018-04-21T14:54:26Z</time>
      </trkpt>
      <trkpt lat="47.44329" lon="6.96723">
        <ele>600</ele>
        <time>2018-04-21T14:54:38Z</time>
      </trkpt>
      <trkpt lat="47.44322" lon="6.96696">
        <ele>599</ele>
        <time>2018-04-21T14:54:50Z</time>
      </trkpt>
      <trkpt lat="47.44316" lon="6.96667">
        <ele>598</ele>
        <time>2018-04-21T14:55:02Z</time>
      </trkpt>
      <trkpt lat="47.4431" lon="6.96637">
        <ele>596</ele>
        <time>2018-04-21T14:55:14Z</time>
      </trkpt>
      <trkpt lat="47.44304" lon="6.96608">
        <ele>595</ele>
        <time>2018-04-21T14:55:26Z</time>
      </trkpt>
      <trkpt lat="47.44299" lon="6.96579">
        <ele>593</ele>
        <time>2018-04-21T14:55:38Z</time>
      </trkpt>
      <trkpt lat="47.44294" lon="6.96551">
        <ele>592</ele>
        <time>2018-04-21T14:55:50Z</time>
      </trkpt>
      <trkpt lat="47.44286" lon="6.96524">
        <ele>591</ele>
        <time>2018-04-21T14:56:02Z</time>
      </trkpt>
      <trkpt lat="47.44278" lon="6.96496">
        <ele>587</ele>
        <time>2018-04-21T14:56:14Z</time>
      </trkpt>
      <trkpt lat="47.44273" lon="6.96467">
        <ele>587</ele>
        <time>2018-04-21T14:56:26Z</time>
      </trkpt>
      <trkpt lat="47.44269" lon="6.96437">
        <ele>586</ele>
        <time>2018-04-21T14:56:40Z</time>
      </trkpt>
      <trkpt lat="47.44264" lon="6.96411">
        <ele>584</ele>
        <time>2018-04-21T14:56:52Z</time>
      </trkpt>
      <trkpt lat="47.44259" lon="6.96381">
        <ele>583</ele>
        <time>2018-04-21T14:57:06Z</time>
      </trkpt>
      <trkpt lat="47.44252" lon="6.96354">
        <ele>582</ele>
        <time>2018-04-21T14:57:20Z</time>
      </trkpt>
      <trkpt lat="47.44247" lon="6.96325">
        <ele>582</ele>
        <time>2018-04-21T14:57:34Z</time>
      </trkpt>
      <trkpt lat="47.44241" lon="6.963">
        <ele>583</ele>
        <time>2018-04-21T14:57:46Z</time>
      </trkpt>
      <trkpt lat="47.44237" lon="6.96271">
        <ele>583</ele>
        <time>2018-04-21T14:58:00Z</time>
      </trkpt>
      <trkpt lat="47.44235" lon="6.96242">
        <ele>582</ele>
        <time>2018-04-21T14:58:14Z</time>
      </trkpt>
      <trkpt lat="47.44237" lon="6.96212">
        <ele>582</ele>
        <time>2018-04-21T14:58:28Z</time>
      </trkpt>
      <trkpt lat="47.44244" lon="6.96184">
        <ele>582</ele>
        <time>2018-04-21T14:58:42Z</time>
      </trkpt>
      <trkpt lat="47.44256" lon="6.9616">
        <ele>582</ele>
        <time>2018-04-21T14:58:56Z</time>
      </trkpt>
      <trkpt lat="47.44269" lon="6.96137">
        <ele>583</ele>
        <time>2018-04-21T14:59:10Z</time>
      </trkpt>
      <trkpt lat="47.44282" lon="6.96116">
        <ele>583</ele>
        <time>2018-04-21T14:59:24Z</time>
      </trkpt>
      <trkpt lat="47.44295" lon="6.96094">
        <ele>584</ele>
        <time>2018-04-21T14:59:40Z</time>
      </trkpt>
      <trkpt lat="47.44303" lon="6.9607">
        <ele>584</ele>
        <time>2018-04-21T14:59:54Z</time>
      </trkpt>
      <trkpt lat="47.44312" lon="6.96047">
        <ele>584</ele>
        <time>2018-04-21T15:00:08Z</time>
      </trkpt>
      <trkpt lat="47.44321" lon="6.9602">
        <ele>585</ele>
        <time>2018-04-21T15:00:22Z</time>
      </trkpt>
      <trkpt lat="47.44331" lon="6.95997">
        <ele>585</ele>
        <time>2018-04-21T15:00:34Z</time>
      </trkpt>
      <trkpt lat="47.44342" lon="6.95973">
        <ele>586</ele>
        <time>2018-04-21T15:00:48Z</time>
      </trkpt>
      <trkpt lat="47.44354" lon="6.95949">
        <ele>587</ele>
        <time>2018-04-21T15:01:02Z</time>
      </trkpt>
      <trkpt lat="47.44365" lon="6.95926">
        <ele>587</ele>
        <time>2018-04-21T15:01:16Z</time>
      </trkpt>
      <trkpt lat="47.44377" lon="6.95902">
        <ele>588</ele>
        <time>2018-04-21T15:01:30Z</time>
      </trkpt>
      <trkpt lat="47.44391" lon="6.9588">
        <ele>588</ele>
        <time>2018-04-21T15:01:46Z</time>
      </trkpt>
      <trkpt lat="47.44403" lon="6.95859">
        <ele>589</ele>
        <time>2018-04-21T15:01:59Z</time>
      </trkpt>
      <trkpt lat="47.44413" lon="6.95837">
        <ele>590</ele>
        <time>2018-04-21T15:02:12Z</time>
      </trkpt>
      <trkpt lat="47.44424" lon="6.95814">
        <ele>592</ele>
        <time>2018-04-21T15:02:25Z</time>
      </trkpt>
      <trkpt lat="47.44429" lon="6.95784">
        <ele>592</ele>
        <time>2018-04-21T15:02:41Z</time>
      </trkpt>
      <trkpt lat="47.4443" lon="6.95757">
        <ele>592</ele>
        <time>2018-04-21T15:02:55Z</time>
      </trkpt>
      <trkpt lat="47.44425" lon="6.95728">
        <ele>592</ele>
        <time>2018-04-21T15:03:09Z</time>
      </trkpt>
      <trkpt lat="47.44418" lon="6.95699">
        <ele>593</ele>
        <time>2018-04-21T15:03:23Z</time>
      </trkpt>
      <trkpt lat="47.44416" lon="6.95669">
        <ele>593</ele>
        <time>2018-04-21T15:03:39Z</time>
      </trkpt>
      <trkpt lat="47.44417" lon="6.9564">
        <ele>593</ele>
        <time>2018-04-21T15:03:55Z</time>
      </trkpt>
      <trkpt lat="47.44423" lon="6.9561">
        <ele>593</ele>
        <time>2018-04-21T15:04:09Z</time>
      </trkpt>
      <trkpt lat="47.44431" lon="6.95586">
        <ele>593</ele>
        <time>2018-04-21T15:04:23Z</time>
      </trkpt>
      <trkpt lat="47.44438" lon="6.95559">
        <ele>594</ele>
        <time>2018-04-21T15:04:37Z</time>
      </trkpt>
      <trkpt lat="47.44452" lon="6.95541">
        <ele>594</ele>
        <time>2018-04-21T15:04:51Z</time>
      </trkpt>
      <trkpt lat="47.44468" lon="6.95522">
        <ele>594</ele>
        <time>2018-04-21T15:05:05Z</time>
      </trkpt>
      <trkpt lat="47.44487" lon="6.95517">
        <ele>594</ele>
        <time>2018-04-21T15:05:19Z</time>
      </trkpt>
      <trkpt lat="47.44506" lon="6.95512">
        <ele>596</ele>
        <time>2018-04-21T15:05:33Z</time>
      </trkpt>
      <trkpt lat="47.44524" lon="6.95505">
        <ele>596</ele>
        <time>2018-04-21T15:05:46Z</time>
      </trkpt>
      <trkpt lat="47.44543" lon="6.95494">
        <ele>598</ele>
        <time>2018-04-21T15:06:00Z</time>
      </trkpt>
      <trkpt lat="47.44561" lon="6.95486">
        <ele>599</ele>
        <time>2018-04-21T15:06:14Z</time>
      </trkpt>
      <trkpt lat="47.4458" lon="6.95476">
        <ele>599</ele>
        <time>2018-04-21T15:06:36Z</time>
      </trkpt>
      <trkpt lat="47.44596" lon="6.95462">
        <ele>601</ele>
        <time>2018-04-21T15:06:52Z</time>
      </trkpt>
      <trkpt lat="47.44612" lon="6.95449">
        <ele>601</ele>
        <time>2018-04-21T15:07:04Z</time>
      </trkpt>
      <trkpt lat="47.44628" lon="6.95435">
        <ele>601</ele>
        <time>2018-04-21T15:07:16Z</time>
      </trkpt>
      <trkpt lat="47.44646" lon="6.95427">
        <ele>602</ele>
        <time>2018-04-21T15:07:30Z</time>
      </trkpt>
      <trkpt lat="47.44664" lon="6.95416">
        <ele>603</ele>
        <time>2018-04-21T15:07:44Z</time>
      </trkpt>
      <trkpt lat="47.44681" lon="6.95406">
        <ele>605</ele>
        <time>2018-04-21T15:07:56Z</time>
      </trkpt>
      <trkpt lat="47.44699" lon="6.95392">
        <ele>606</ele>
        <time>2018-04-21T15:08:12Z</time>
      </trkpt>
      <trkpt lat="47.44717" lon="6.95387">
        <ele>606</ele>
        <time>2018-04-21T15:08:28Z</time>
      </trkpt>
      <trkpt lat="47.44736" lon="6.95374">
        <ele>607</ele>
        <time>2018-04-21T15:08:42Z</time>
      </trkpt>
      <trkpt lat="47.44751" lon="6.95358">
        <ele>609</ele>
        <time>2018-04-21T15:08:58Z</time>
      </trkpt>
      <trkpt lat="47.44759" lon="6.95333">
        <ele>609</ele>
        <time>2018-04-21T15:09:10Z</time>
      </trkpt>
      <trkpt lat="47.44747" lon="6.95308">
        <ele>609</ele>
        <time>2018-04-21T15:09:24Z</time>
      </trkpt>
      <trkpt lat="47.44734" lon="6.95289">
        <ele>609</ele>
        <time>2018-04-21T15:09:38Z</time>
      </trkpt>
      <trkpt lat="47.44727" lon="6.95264">
        <ele>609</ele>
        <time>2018-04-21T15:09:54Z</time>
      </trkpt>
      <trkpt lat="47.44737" lon="6.95241">
        <ele>609</ele>
        <time>2018-04-21T15:10:08Z</time>
      </trkpt>
      <trkpt lat="47.44745" lon="6.95215">
        <ele>609</ele>
        <time>2018-04-21T15:10:22Z</time>
      </trkpt>
      <trkpt lat="47.44754" lon="6.95188">
        <ele>608</ele>
        <time>2018-04-21T15:10:36Z</time>
      </trkpt>
      <trkpt lat="47.44765" lon="6.95162">
        <ele>607</ele>
        <time>2018-04-21T15:10:52Z</time>
      </trkpt>
      <trkpt lat="47.44776" lon="6.95135">
        <ele>607</ele>
        <time>2018-04-21T15:11:08Z</time>
      </trkpt>
      <trkpt lat="47.44778" lon="6.95107">
        <ele>607</ele>
        <time>2018-04-21T15:11:20Z</time>
      </trkpt>
      <trkpt lat="47.4477" lon="6.95081">
        <ele>606</ele>
        <time>2018-04-21T15:11:34Z</time>
      </trkpt>
      <trkpt lat="47.44763" lon="6.95053">
        <ele>606</ele>
        <time>2018-04-21T15:11:50Z</time>
      </trkpt>
      <trkpt lat="47.44756" lon="6.95027">
        <ele>605</ele>
        <time>2018-04-21T15:12:02Z</time>
      </trkpt>
      <trkpt lat="47.44747" lon="6.95002">
        <ele>605</ele>
        <time>2018-04-21T15:12:16Z</time>
      </trkpt>
      <trkpt lat="47.44736" lon="6.94976">
        <ele>603</ele>
        <time>2018-04-21T15:12:30Z</time>
      </trkpt>
      <trkpt lat="47.44725" lon="6.94953">
        <ele>602</ele>
        <time>2018-04-21T15:12:44Z</time>
      </trkpt>
      <trkpt lat="47.44713" lon="6.94932">
        <ele>602</ele>
        <time>2018-04-21T15:12:56Z</time>
      </trkpt>
      <trkpt lat="47.447" lon="6.9491">
        <ele>599</ele>
        <time>2018-04-21T15:13:12Z</time>
      </trkpt>
      <trkpt lat="47.44685" lon="6.94891">
        <ele>599</ele>
        <time>2018-04-21T15:13:26Z</time>
      </trkpt>
      <trkpt lat="47.4467" lon="6.94873">
        <ele>599</ele>
        <time>2018-04-21T15:13:40Z</time>
      </trkpt>
      <trkpt lat="47.44656" lon="6.94853">
        <ele>598</ele>
        <time>2018-04-21T15:13:54Z</time>
      </trkpt>
      <trkpt lat="47.44644" lon="6.94832">
        <ele>596</ele>
        <time>2018-04-21T15:14:08Z</time>
      </trkpt>
      <trkpt lat="47.44635" lon="6.94809">
        <ele>596</ele>
        <time>2018-04-21T15:14:22Z</time>
      </trkpt>
      <trkpt lat="47.44625" lon="6.94786">
        <ele>595</ele>
        <time>2018-04-21T15:14:36Z</time>
      </trkpt>
      <trkpt lat="47.44619" lon="6.9476">
        <ele>595</ele>
        <time>2018-04-21T15:14:52Z</time>
      </trkpt>
      <trkpt lat="47.44614" lon="6.94734">
        <ele>594</ele>
        <time>2018-04-21T15:15:04Z</time>
      </trkpt>
      <trkpt lat="47.44612" lon="6.94703">
        <ele>593</ele>
        <time>2018-04-21T15:15:18Z</time>
      </trkpt>
      <trkpt lat="47.44612" lon="6.94673">
        <ele>592</ele>
        <time>2018-04-21T15:15:32Z</time>
      </trkpt>
      <trkpt lat="47.44613" lon="6.94643">
        <ele>592</ele>
        <time>2018-04-21T15:15:46Z</time>
      </trkpt>
      <trkpt lat="47.4461" lon="6.94613">
        <ele>592</ele>
        <time>2018-04-21T15:16:00Z</time>
      </trkpt>
      <trkpt lat="47.44604" lon="6.94586">
        <ele>592</ele>
        <time>2018-04-21T15:16:14Z</time>
      </trkpt>
      <trkpt lat="47.44595" lon="6.94559">
        <ele>592</ele>
        <time>2018-04-21T15:16:28Z</time>
      </trkpt>
      <trkpt lat="47.44587" lon="6.94535">
        <ele>593</ele>
        <time>2018-04-21T15:16:40Z</time>
      </trkpt>
      <trkpt lat="47.44576" lon="6.94508">
        <ele>594</ele>
        <time>2018-04-21T15:16:54Z</time>
      </trkpt>
      <trkpt lat="47.44568" lon="6.94484">
        <ele>598</ele>
        <time>2018-04-21T15:17:08Z</time>
      </trkpt>
      <trkpt lat="47.44554" lon="6.94464">
        <ele>601</ele>
        <time>2018-04-21T15:17:24Z</time>
      </trkpt>
      <trkpt lat="47.44542" lon="6.94442">
        <ele>602</ele>
        <time>2018-04-21T15:17:36Z</time>
      </trkpt>
      <trkpt lat="47.44527" lon="6.94425">
        <ele>604</ele>
        <time>2018-04-21T15:17:46Z</time>
      </trkpt>
      <trkpt lat="47.44509" lon="6.94414">
        <ele>609</ele>
        <time>2018-04-21T15:17:58Z</time>
      </trkpt>
      <trkpt lat="47.44492" lon="6.94401">
        <ele>610</ele>
        <time>2018-04-21T15:18:14Z</time>
      </trkpt>
      <trkpt lat="47.44475" lon="6.9438">
        <ele>611</ele>
        <time>2018-04-21T15:18:28Z</time>
      </trkpt>
      <trkpt lat="47.44463" lon="6.9436">
        <ele>612</ele>
        <time>2018-04-21T15:18:40Z</time>
      </trkpt>
      <trkpt lat="47.4445" lon="6.9434">
        <ele>612</ele>
        <time>2018-04-21T15:18:52Z</time>
      </trkpt>
      <trkpt lat="47.44439" lon="6.94316">
        <ele>612</ele>
        <time>2018-04-21T15:19:06Z</time>
      </trkpt>
      <trkpt lat="47.44437" lon="6.94289">
        <ele>611</ele>
        <time>2018-04-21T15:19:18Z</time>
      </trkpt>
      <trkpt lat="47.44429" lon="6.94265">
        <ele>611</ele>
        <time>2018-04-21T15:19:30Z</time>
      </trkpt>
      <trkpt lat="47.44416" lon="6.94241">
        <ele>611</ele>
        <time>2018-04-21T15:19:46Z</time>
      </trkpt>
      <trkpt lat="47.44399" lon="6.94222">
        <ele>611</ele>
        <time>2018-04-21T15:20:00Z</time>
      </trkpt>
      <trkpt lat="47.44385" lon="6.94204">
        <ele>611</ele>
        <time>2018-04-21T15:20:12Z</time>
      </trkpt>
      <trkpt lat="47.44371" lon="6.94182">
        <ele>612</ele>
        <time>2018-04-21T15:20:26Z</time>
      </trkpt>
      <trkpt lat="47.44361" lon="6.94157">
        <ele>615</ele>
        <time>2018-04-21T15:20:40Z</time>
      </trkpt>
      <trkpt lat="47.4435" lon="6.94134">
        <ele>616</ele>
        <time>2018-04-21T15:20:54Z</time>
      </trkpt>
      <trkpt lat="47.44339" lon="6.94108">
        <ele>618</ele>
        <time>2018-04-21T15:21:08Z</time>
      </trkpt>
      <trkpt lat="47.44328" lon="6.94083">
        <ele>618</ele>
        <time>2018-04-21T15:21:22Z</time>
      </trkpt>
      <trkpt lat="47.44315" lon="6.94059">
        <ele>619</ele>
        <time>2018-04-21T15:21:36Z</time>
      </trkpt>
      <trkpt lat="47.443" lon="6.94039">
        <ele>618</ele>
        <time>2018-04-21T15:21:50Z</time>
      </trkpt>
      <trkpt lat="47.44283" lon="6.94022">
        <ele>618</ele>
        <time>2018-04-21T15:22:02Z</time>
      </trkpt>
      <trkpt lat="47.44265" lon="6.94006">
        <ele>617</ele>
        <time>2018-04-21T15:22:16Z</time>
      </trkpt>
      <trkpt lat="47.44249" lon="6.93989">
        <ele>616</ele>
        <time>2018-04-21T15:22:30Z</time>
      </trkpt>
      <trkpt lat="47.44234" lon="6.93971">
        <ele>616</ele>
        <time>2018-04-21T15:22:44Z</time>
      </trkpt>
      <trkpt lat="47.44218" lon="6.93953">
        <ele>615</ele>
        <time>2018-04-21T15:23:00Z</time>
      </trkpt>
      <trkpt lat="47.442" lon="6.93938">
        <ele>615</ele>
        <time>2018-04-21T15:23:14Z</time>
      </trkpt>
      <trkpt lat="47.44185" lon="6.93922">
        <ele>614</ele>
        <time>2018-04-21T15:23:28Z</time>
      </trkpt>
      <trkpt lat="47.44169" lon="6.93909">
        <ele>613</ele>
        <time>2018-04-21T15:23:40Z</time>
      </trkpt>
      <trkpt lat="47.44152" lon="6.93898">
        <ele>610</ele>
        <time>2018-04-21T15:23:52Z</time>
      </trkpt>
      <trkpt lat="47.44135" lon="6.93881">
        <ele>610</ele>
        <time>2018-04-21T15:24:06Z</time>
      </trkpt>
      <trkpt lat="47.44133" lon="6.93849">
        <ele>609</ele>
        <time>2018-04-21T15:24:20Z</time>
      </trkpt>
      <trkpt lat="47.44131" lon="6.93819">
        <ele>609</ele>
        <time>2018-04-21T15:24:34Z</time>
      </trkpt>
      <trkpt lat="47.44128" lon="6.93789">
        <ele>609</ele>
        <time>2018-04-21T15:24:48Z</time>
      </trkpt>
      <trkpt lat="47.44128" lon="6.93761">
        <ele>608</ele>
        <time>2018-04-21T15:25:02Z</time>
      </trkpt>
      <trkpt lat="47.44127" lon="6.93731">
        <ele>606</ele>
        <time>2018-04-21T15:25:16Z</time>
      </trkpt>
      <trkpt lat="47.44125" lon="6.93701">
        <ele>606</ele>
        <time>2018-04-21T15:25:30Z</time>
      </trkpt>
      <trkpt lat="47.44123" lon="6.93674">
        <ele>605</ele>
        <time>2018-04-21T15:25:42Z</time>
      </trkpt>
      <trkpt lat="47.44121" lon="6.93646">
        <ele>603</ele>
        <time>2018-04-21T15:25:54Z</time>
      </trkpt>
      <trkpt lat="47.44119" lon="6.93615">
        <ele>603</ele>
        <time>2018-04-21T15:26:08Z</time>
      </trkpt>
      <trkpt lat="47.44118" lon="6.93586">
        <ele>602</ele>
        <time>2018-04-21T15:26:22Z</time>
      </trkpt>
      <trkpt lat="47.44116" lon="6.93559">
        <ele>600</ele>
        <time>2018-04-21T15:26:34Z</time>
      </trkpt>
      <trkpt lat="47.44114" lon="6.93531">
        <ele>600</ele>
        <time>2018-04-21T15:26:46Z</time>
      </trkpt>
      <trkpt lat="47.44112" lon="6.93504">
        <ele>600</ele>
        <time>2018-04-21T15:26:58Z</time>
      </trkpt>
      <trkpt lat="47.4411" lon="6.93474">
        <ele>597</ele>
        <time>2018-04-21T15:27:12Z</time>
      </trkpt>
      <trkpt lat="47.4411" lon="6.93444">
        <ele>596</ele>
        <time>2018-04-21T15:27:26Z</time>
      </trkpt>
      <trkpt lat="47.44124" lon="6.93428">
        <ele>596</ele>
        <time>2018-04-21T15:27:38Z</time>
      </trkpt>
      <trkpt lat="47.44141" lon="6.9341">
        <ele>594</ele>
        <time>2018-04-21T15:27:52Z</time>
      </trkpt>
      <trkpt lat="47.4416" lon="6.93414">
        <ele>594</ele>
        <time>2018-04-21T15:28:27Z</time>
      </trkpt>
      <trkpt lat="47.44176" lon="6.93432">
        <ele>595</ele>
        <time>2018-04-21T15:28:43Z</time>
      </trkpt>
      <trkpt lat="47.44192" lon="6.93417">
        <ele>595</ele>
        <time>2018-04-21T15:29:11Z</time>
      </trkpt>
      <trkpt lat="47.44175" lon="6.934">
        <ele>593</ele>
        <time>2018-04-21T15:30:07Z</time>
      </trkpt>
      <trkpt lat="47.44159" lon="6.93388">
        <ele>593</ele>
        <time>2018-04-21T15:30:19Z</time>
      </trkpt>
      <trkpt lat="47.44143" lon="6.93374">
        <ele>593</ele>
        <time>2018-04-21T15:30:31Z</time>
      </trkpt>
      <trkpt lat="47.44124" lon="6.93366">
        <ele>593</ele>
        <time>2018-04-21T15:30:43Z</time>
      </trkpt>
      <trkpt lat="47.44106" lon="6.93352">
        <ele>594</ele>
        <time>2018-04-21T15:30:57Z</time>
      </trkpt>
      <trkpt lat="47.4409" lon="6.93336">
        <ele>594</ele>
        <time>2018-04-21T15:31:09Z</time>
      </trkpt>
      <trkpt lat="47.44075" lon="6.93321">
        <ele>593</ele>
        <time>2018-04-21T15:31:21Z</time>
      </trkpt>
      <trkpt lat="47.44069" lon="6.93295">
        <ele>592</ele>
        <time>2018-04-21T15:31:37Z</time>
      </trkpt>
      <trkpt lat="47.44073" lon="6.93266">
        <ele>590</ele>
        <time>2018-04-21T15:31:51Z</time>
      </trkpt>
      <trkpt lat="47.44074" lon="6.93239">
        <ele>587</ele>
        <time>2018-04-21T15:32:03Z</time>
      </trkpt>
      <trkpt lat="47.44077" lon="6.93208">
        <ele>586</ele>
        <time>2018-04-21T15:32:17Z</time>
      </trkpt>
      <trkpt lat="47.44079" lon="6.9318">
        <ele>584</ele>
        <time>2018-04-21T15:32:29Z</time>
      </trkpt>
      <trkpt lat="47.4408" lon="6.93151">
        <ele>582</ele>
        <time>2018-04-21T15:32:41Z</time>
      </trkpt>
      <trkpt lat="47.44082" lon="6.93123">
        <ele>581</ele>
        <time>2018-04-21T15:32:55Z</time>
      </trkpt>
      <trkpt lat="47.44084" lon="6.93095">
        <ele>580</ele>
        <time>2018-04-21T15:33:07Z</time>
      </trkpt>
      <trkpt lat="47.44086" lon="6.93067">
        <ele>580</ele>
        <time>2018-04-21T15:33:19Z</time>
      </trkpt>
      <trkpt lat="47.44089" lon="6.93037">
        <ele>580</ele>
        <time>2018-04-21T15:33:33Z</time>
      </trkpt>
      <trkpt lat="47.44091" lon="6.9301">
        <ele>580</ele>
        <time>2018-04-21T15:33:47Z</time>
      </trkpt>
      <trkpt lat="47.44107" lon="6.92992">
        <ele>581</ele>
        <time>2018-04-21T15:34:05Z</time>
      </trkpt>
      <trkpt lat="47.44126" lon="6.92996">
        <ele>582</ele>
        <time>2018-04-21T15:34:17Z</time>
      </trkpt>
      <trkpt lat="47.44144" lon="6.93001">
        <ele>581</ele>
        <time>2018-04-21T15:34:29Z</time>
      </trkpt>
      <trkpt lat="47.44162" lon="6.93004">
        <ele>582</ele>
        <time>2018-04-21T15:34:41Z</time>
      </trkpt>
      <trkpt lat="47.4418" lon="6.9301">
        <ele>584</ele>
        <time>2018-04-21T15:34:55Z</time>
      </trkpt>
      <trkpt lat="47.442" lon="6.93015">
        <ele>585</ele>
        <time>2018-04-21T15:35:09Z</time>
      </trkpt>
      <trkpt lat="47.4422" lon="6.93021">
        <ele>586</ele>
        <time>2018-04-21T15:35:23Z</time>
      </trkpt>
      <trkpt lat="47.44237" lon="6.93024">
        <ele>587</ele>
        <time>2018-04-21T15:35:37Z</time>
      </trkpt>
      <trkpt lat="47.44258" lon="6.93028">
        <ele>592</ele>
        <time>2018-04-21T15:35:53Z</time>
      </trkpt>
      <trkpt lat="47.44277" lon="6.9303">
        <ele>592</ele>
        <time>2018-04-21T15:36:03Z</time>
      </trkpt>
      <trkpt lat="47.44297" lon="6.93022">
        <ele>593</ele>
        <time>2018-04-21T15:36:17Z</time>
      </trkpt>
      <trkpt lat="47.44317" lon="6.9302">
        <ele>594</ele>
        <time>2018-04-21T15:36:31Z</time>
      </trkpt>
      <trkpt lat="47.44336" lon="6.93017">
        <ele>597</ele>
        <time>2018-04-21T15:36:43Z</time>
      </trkpt>
      <trkpt lat="47.44357" lon="6.93016">
        <ele>597</ele>
        <time>2018-04-21T15:36:59Z</time>
      </trkpt>
      <trkpt lat="47.44375" lon="6.93024">
        <ele>598</ele>
        <time>2018-04-21T15:37:11Z</time>
      </trkpt>
      <trkpt lat="47.44395" lon="6.9303">
        <ele>598</ele>
        <time>2018-04-21T15:37:23Z</time>
      </trkpt>
      <trkpt lat="47.44415" lon="6.93026">
        <ele>598</ele>
        <time>2018-04-21T15:37:35Z</time>
      </trkpt>
      <trkpt lat="47.44432" lon="6.93009">
        <ele>600</ele>
        <time>2018-04-21T15:37:55Z</time>
      </trkpt>
      <trkpt lat="47.44446" lon="6.92991">
        <ele>602</ele>
        <time>2018-04-21T15:38:07Z</time>
      </trkpt>
      <trkpt lat="47.44463" lon="6.92973">
        <ele>604</ele>
        <time>2018-04-21T15:38:19Z</time>
      </trkpt>
      <trkpt lat="47.44481" lon="6.92968">
        <ele>605</ele>
        <time>2018-04-21T15:38:37Z</time>
      </trkpt>
      <trkpt lat="47.44499" lon="6.92961">
        <ele>605</ele>
        <time>2018-04-21T15:38:47Z</time>
      </trkpt>
      <trkpt lat="47.44517" lon="6.92943">
        <ele>608</ele>
        <time>2018-04-21T15:39:01Z</time>
      </trkpt>
      <trkpt lat="47.4453" lon="6.92923">
        <ele>608</ele>
        <time>2018-04-21T15:39:17Z</time>
      </trkpt>
      <trkpt lat="47.44546" lon="6.92909">
        <ele>610</ele>
        <time>2018-04-21T15:39:29Z</time>
      </trkpt>
      <trkpt lat="47.44561" lon="6.92892">
        <ele>610</ele>
        <time>2018-04-21T15:39:47Z</time>
      </trkpt>
      <trkpt lat="47.44574" lon="6.92872">
        <ele>610</ele>
        <time>2018-04-21T15:40:05Z</time>
      </trkpt>
      <trkpt lat="47.4459" lon="6.92854">
        <ele>612</ele>
        <time>2018-04-21T15:40:21Z</time>
      </trkpt>
      <trkpt lat="47.44609" lon="6.92846">
        <ele>612</ele>
        <time>2018-04-21T15:40:37Z</time>
      </trkpt>
      <trkpt lat="47.44628" lon="6.92837">
        <ele>613</ele>
        <time>2018-04-21T15:40:51Z</time>
      </trkpt>
      <trkpt lat="47.44648" lon="6.92828">
        <ele>615</ele>
        <time>2018-04-21T15:41:05Z</time>
      </trkpt>
      <trkpt lat="47.44665" lon="6.9282">
        <ele>615</ele>
        <time>2018-04-21T15:41:19Z</time>
      </trkpt>
      <trkpt lat="47.44682" lon="6.92808">
        <ele>615</ele>
        <time>2018-04-21T15:41:33Z</time>
      </trkpt>
      <trkpt lat="47.44698" lon="6.92795">
        <ele>614</ele>
        <time>2018-04-21T15:41:47Z</time>
      </trkpt>
      <trkpt lat="47.44718" lon="6.92787">
        <ele>614</ele>
        <time>2018-04-21T15:42:03Z</time>
      </trkpt>
      <trkpt lat="47.44735" lon="6.92777">
        <ele>614</ele>
        <time>2018-04-21T15:42:13Z</time>
      </trkpt>
      <trkpt lat="47.44752" lon="6.92765">
        <ele>612</ele>
        <time>2018-04-21T15:42:25Z</time>
      </trkpt>
      <trkpt lat="47.44768" lon="6.92749">
        <ele>611</ele>
        <time>2018-04-21T15:42:37Z</time>
      </trkpt>
      <trkpt lat="47.44777" lon="6.92724">
        <ele>610</ele>
        <time>2018-04-21T15:43:27Z</time>
      </trkpt>
      <trkpt lat="47.44777" lon="6.92695">
        <ele>609</ele>
        <time>2018-04-21T15:43:43Z</time>
      </trkpt>
      <trkpt lat="47.44778" lon="6.92668">
        <ele>609</ele>
        <time>2018-04-21T15:43:57Z</time>
      </trkpt>
      <trkpt lat="47.44775" lon="6.92639">
        <ele>606</ele>
        <time>2018-04-21T15:44:13Z</time>
      </trkpt>
      <trkpt lat="47.44768" lon="6.92614">
        <ele>605</ele>
        <time>2018-04-21T15:44:29Z</time>
      </trkpt>
      <trkpt lat="47.44768" lon="6.92587">
        <ele>604</ele>
        <time>2018-04-21T15:44:45Z</time>
      </trkpt>
      <trkpt lat="47.44772" lon="6.92613">
        <ele>605</ele>
        <time>2018-04-21T15:45:33Z</time>
      </trkpt>
      <trkpt lat="47.44775" lon="6.92641">
        <ele>606</ele>
        <time>2018-04-21T15:46:11Z</time>
      </trkpt>
      <trkpt lat="47.44794" lon="6.92646">
        <ele>605</ele>
        <time>2018-04-21T15:46:35Z</time>
      </trkpt>
      <trkpt lat="47.44812" lon="6.9264">
        <ele>605</ele>
        <time>2018-04-21T15:46:47Z</time>
      </trkpt>
      <trkpt lat="47.44831" lon="6.9263">
        <ele>604</ele>
        <time>2018-04-21T15:47:01Z</time>
      </trkpt>
      <trkpt lat="47.44849" lon="6.92621">
        <ele>599</ele>
        <time>2018-04-21T15:47:15Z</time>
      </trkpt>
      <trkpt lat="47.44866" lon="6.92609">
        <ele>598</ele>
        <time>2018-04-21T15:47:25Z</time>
      </trkpt>
      <trkpt lat="47.44884" lon="6.92589">
        <ele>596</ele>
        <time>2018-04-21T15:47:37Z</time>
      </trkpt>
      <trkpt lat="47.44899" lon="6.92571">
        <ele>592</ele>
        <time>2018-04-21T15:47:53Z</time>
      </trkpt>
      <trkpt lat="47.44917" lon="6.92556">
        <ele>590</ele>
        <time>2018-04-21T15:48:07Z</time>
      </trkpt>
      <trkpt lat="47.44931" lon="6.92538">
        <ele>589</ele>
        <time>2018-04-21T15:48:17Z</time>
      </trkpt>
      <trkpt lat="47.44946" lon="6.92522">
        <ele>589</ele>
        <time>2018-04-21T15:48:27Z</time>
      </trkpt>
      <trkpt lat="47.44962" lon="6.92503">
        <ele>590</ele>
        <time>2018-04-21T15:48:39Z</time>
      </trkpt>
      <trkpt lat="47.44978" lon="6.9249">
        <ele>588</ele>
        <time>2018-04-21T15:48:51Z</time>
      </trkpt>
      <trkpt lat="47.44996" lon="6.92475">
        <ele>588</ele>
        <time>2018-04-21T15:49:03Z</time>
      </trkpt>
      <trkpt lat="47.45013" lon="6.92459">
        <ele>584</ele>
        <time>2018-04-21T15:49:15Z</time>
      </trkpt>
      <trkpt lat="47.45029" lon="6.92441">
        <ele>583</ele>
        <time>2018-04-21T15:49:33Z</time>
      </trkpt>
      <trkpt lat="47.45047" lon="6.92427">
        <ele>581</ele>
        <time>2018-04-21T15:49:49Z</time>
      </trkpt>
      <trkpt lat="47.45064" lon="6.9241">
        <ele>578</ele>
        <time>2018-04-21T15:50:03Z</time>
      </trkpt>
      <trkpt lat="47.45082" lon="6.92397">
        <ele>577</ele>
        <time>2018-04-21T15:50:17Z</time>
      </trkpt>
      <trkpt lat="47.45095" lon="6.92378">
        <ele>576</ele>
        <time>2018-04-21T15:50:29Z</time>
      </trkpt>
      <trkpt lat="47.45113" lon="6.92362">
        <ele>576</ele>
        <time>2018-04-21T15:50:41Z</time>
      </trkpt>
      <trkpt lat="47.45129" lon="6.92347">
        <ele>577</ele>
        <time>2018-04-21T15:50:51Z</time>
      </trkpt>
      <trkpt lat="47.45146" lon="6.92327">
        <ele>577</ele>
        <time>2018-04-21T15:51:05Z</time>
      </trkpt>
      <trkpt lat="47.45161" lon="6.92305">
        <ele>577</ele>
        <time>2018-04-21T15:51:15Z</time>
      </trkpt>
      <trkpt lat="47.45175" lon="6.92286">
        <ele>578</ele>
        <time>2018-04-21T15:51:27Z</time>
      </trkpt>
      <trkpt lat="47.45192" lon="6.92269">
        <ele>578</ele>
        <time>2018-04-21T15:51:41Z</time>
      </trkpt>
      <trkpt lat="47.45209" lon="6.92253">
        <ele>578</ele>
        <time>2018-04-21T15:51:53Z</time>
      </trkpt>
      <trkpt lat="47.45225" lon="6.92241">
        <ele>577</ele>
        <time>2018-04-21T15:52:05Z</time>
      </trkpt>
      <trkpt lat="47.4524" lon="6.92222">
        <ele>577</ele>
        <time>2018-04-21T15:52:21Z</time>
      </trkpt>
      <trkpt lat="47.45257" lon="6.92202">
        <ele>577</ele>
        <time>2018-04-21T15:52:35Z</time>
      </trkpt>
      <trkpt lat="47.45271" lon="6.92186">
        <ele>577</ele>
        <time>2018-04-21T15:52:47Z</time>
      </trkpt>
      <trkpt lat="47.45287" lon="6.92168">
        <ele>577</ele>
        <time>2018-04-21T15:53:01Z</time>
      </trkpt>
      <trkpt lat="47.45303" lon="6.92151">
        <ele>577</ele>
        <time>2018-04-21T15:53:13Z</time>
      </trkpt>
      <trkpt lat="47.45322" lon="6.92136">
        <ele>577</ele>
        <time>2018-04-21T15:53:25Z</time>
      </trkpt>
      <trkpt lat="47.45339" lon="6.92122">
        <ele>574</ele>
        <time>2018-04-21T15:53:37Z</time>
      </trkpt>
      <trkpt lat="47.45357" lon="6.92114">
        <ele>574</ele>
        <time>2018-04-21T15:53:49Z</time>
      </trkpt>
      <trkpt lat="47.45376" lon="6.92102">
        <ele>573</ele>
        <time>2018-04-21T15:54:03Z</time>
      </trkpt>
      <trkpt lat="47.45395" lon="6.9209">
        <ele>571</ele>
        <time>2018-04-21T15:54:15Z</time>
      </trkpt>
      <trkpt lat="47.45414" lon="6.92078">
        <ele>569</ele>
        <time>2018-04-21T15:54:29Z</time>
      </trkpt>
      <trkpt lat="47.45432" lon="6.92072">
        <ele>568</ele>
        <time>2018-04-21T15:54:43Z</time>
      </trkpt>
      <trkpt lat="47.45451" lon="6.92062">
        <ele>568</ele>
        <time>2018-04-21T15:55:01Z</time>
      </trkpt>
      <trkpt lat="47.4547" lon="6.92053">
        <ele>567</ele>
        <time>2018-04-21T15:55:15Z</time>
      </trkpt>
      <trkpt lat="47.45487" lon="6.92044">
        <ele>567</ele>
        <time>2018-04-21T15:55:25Z</time>
      </trkpt>
      <trkpt lat="47.45504" lon="6.92033">
        <ele>565</ele>
        <time>2018-04-21T15:55:37Z</time>
      </trkpt>
      <trkpt lat="47.45522" lon="6.92018">
        <ele>565</ele>
        <time>2018-04-21T15:55:51Z</time>
      </trkpt>
      <trkpt lat="47.4554" lon="6.92009">
        <ele>564</ele>
        <time>2018-04-21T15:56:05Z</time>
      </trkpt>
      <trkpt lat="47.45558" lon="6.91997">
        <ele>564</ele>
        <time>2018-04-21T15:56:17Z</time>
      </trkpt>
      <trkpt lat="47.45574" lon="6.91983">
        <ele>563</ele>
        <time>2018-04-21T15:56:31Z</time>
      </trkpt>
      <trkpt lat="47.45589" lon="6.91966">
        <ele>561</ele>
        <time>2018-04-21T15:56:43Z</time>
      </trkpt>
      <trkpt lat="47.45601" lon="6.91946">
        <ele>562</ele>
        <time>2018-04-21T15:56:57Z</time>
      </trkpt>
      <trkpt lat="47.45611" lon="6.91921">
        <ele>561</ele>
        <time>2018-04-21T15:57:11Z</time>
      </trkpt>
      <trkpt lat="47.45618" lon="6.91892">
        <ele>560</ele>
        <time>2018-04-21T15:57:25Z</time>
      </trkpt>
      <trkpt lat="47.45627" lon="6.91865">
        <ele>560</ele>
        <time>2018-04-21T15:57:37Z</time>
      </trkpt>
      <trkpt lat="47.45634" lon="6.9184">
        <ele>559</ele>
        <time>2018-04-21T15:57:47Z</time>
      </trkpt>
      <trkpt lat="47.45643" lon="6.91817">
        <ele>557</ele>
        <time>2018-04-21T15:57:57Z</time>
      </trkpt>
      <trkpt lat="47.45652" lon="6.91794">
        <ele>557</ele>
        <time>2018-04-21T15:58:07Z</time>
      </trkpt>
      <trkpt lat="47.4566" lon="6.91768">
        <ele>556</ele>
        <time>2018-04-21T15:58:17Z</time>
      </trkpt>
      <trkpt lat="47.45671" lon="6.91742">
        <ele>553</ele>
        <time>2018-04-21T15:58:29Z</time>
      </trkpt>
      <trkpt lat="47.45683" lon="6.91721">
        <ele>553</ele>
        <time>2018-04-21T15:58:41Z</time>
      </trkpt>
      <trkpt lat="47.45699" lon="6.91701">
        <ele>552</ele>
        <time>2018-04-21T15:58:55Z</time>
      </trkpt>
      <trkpt lat="47.45713" lon="6.91685">
        <ele>552</ele>
        <time>2018-04-21T15:59:07Z</time>
      </trkpt>
      <trkpt lat="47.45729" lon="6.91666">
        <ele>548</ele>
        <time>2018-04-21T15:59:21Z</time>
      </trkpt>
      <trkpt lat="47.45744" lon="6.91651">
        <ele>548</ele>
        <time>2018-04-21T15:59:33Z</time>
      </trkpt>
      <trkpt lat="47.45743" lon="6.91623">
        <ele>547</ele>
        <time>2018-04-21T15:59:59Z</time>
      </trkpt>
      <trkpt lat="47.45726" lon="6.91607">
        <ele>546</ele>
        <time>2018-04-21T16:00:13Z</time>
      </trkpt>
      <trkpt lat="47.4571" lon="6.91589">
        <ele>546</ele>
        <time>2018-04-21T16:00:27Z</time>
      </trkpt>
      <trkpt lat="47.45721" lon="6.91564">
        <ele>542</ele>
        <time>2018-04-21T16:00:45Z</time>
      </trkpt>
      <trkpt lat="47.4574" lon="6.91559">
        <ele>542</ele>
        <time>2018-04-21T16:01:01Z</time>
      </trkpt>
      <trkpt lat="47.4576" lon="6.91555">
        <ele>541</ele>
        <time>2018-04-21T16:01:13Z</time>
      </trkpt>
      <trkpt lat="47.45782" lon="6.91555">
        <ele>541</ele>
        <time>2018-04-21T16:01:27Z</time>
      </trkpt>
      <trkpt lat="47.458" lon="6.91557">
        <ele>541</ele>
        <time>2018-04-21T16:01:39Z</time>
      </trkpt>
      <trkpt lat="47.4582" lon="6.91559">
        <ele>541</ele>
        <time>2018-04-21T16:01:53Z</time>
      </trkpt>
      <trkpt lat="47.4584" lon="6.91564">
        <ele>541</ele>
        <time>2018-04-21T16:02:06Z</time>
      </trkpt>
      <trkpt lat="47.45862" lon="6.91566">
        <ele>540</ele>
        <time>2018-04-21T16:02:20Z</time>
      </trkpt>
      <trkpt lat="47.45881" lon="6.91565">
        <ele>540</ele>
        <time>2018-04-21T16:02:34Z</time>
      </trkpt>
      <trkpt lat="47.459" lon="6.91557">
        <ele>540</ele>
        <time>2018-04-21T16:02:48Z</time>
      </trkpt>
      <trkpt lat="47.45918" lon="6.91547">
        <ele>539</ele>
        <time>2018-04-21T16:03:02Z</time>
      </trkpt>
      <trkpt lat="47.45936" lon="6.91538">
        <ele>539</ele>
        <time>2018-04-21T16:03:14Z</time>
      </trkpt>
      <trkpt lat="47.45954" lon="6.91532">
        <ele>539</ele>
        <time>2018-04-21T16:03:28Z</time>
      </trkpt>
      <trkpt lat="47.45974" lon="6.91524">
        <ele>539</ele>
        <time>2018-04-21T16:03:46Z</time>
      </trkpt>
      <trkpt lat="47.45992" lon="6.91509">
        <ele>539</ele>
        <time>2018-04-21T16:04:00Z</time>
      </trkpt>
      <trkpt lat="47.46009" lon="6.91498">
        <ele>537</ele>
        <time>2018-04-21T16:04:30Z</time>
      </trkpt>
      <trkpt lat="47.46025" lon="6.91483">
        <ele>536</ele>
        <time>2018-04-21T16:04:44Z</time>
      </trkpt>
      <trkpt lat="47.46037" lon="6.91505">
        <ele>536</ele>
        <time>2018-04-21T16:05:14Z</time>
      </trkpt>
      <trkpt lat="47.46029" lon="6.91529">
        <ele>536</ele>
        <time>2018-04-21T16:05:32Z</time>
      </trkpt>
      <trkpt lat="47.46015" lon="6.91549">
        <ele>537</ele>
        <time>2018-04-21T16:05:48Z</time>
      </trkpt>
      <trkpt lat="47.46001" lon="6.91572">
        <ele>539</ele>
        <time>2018-04-21T16:06:02Z</time>
      </trkpt>
      <trkpt lat="47.45991" lon="6.91595">
        <ele>542</ele>
        <time>2018-04-21T16:06:20Z</time>
      </trkpt>
      <trkpt lat="47.45981" lon="6.91618">
        <ele>542</ele>
        <time>2018-04-21T16:06:34Z</time>
      </trkpt>
      <trkpt lat="47.45974" lon="6.91644">
        <ele>543</ele>
        <time>2018-04-21T16:06:48Z</time>
      </trkpt>
      <trkpt lat="47.45967" lon="6.91668">
        <ele>546</ele>
        <time>2018-04-21T16:07:02Z</time>
      </trkpt>
      <trkpt lat="47.45962" lon="6.91695">
        <ele>547</ele>
        <time>2018-04-21T16:07:18Z</time>
      </trkpt>
      <trkpt lat="47.45955" lon="6.91721">
        <ele>548</ele>
        <time>2018-04-21T16:07:34Z</time>
      </trkpt>
      <trkpt lat="47.45948" lon="6.91749">
        <ele>550</ele>
        <time>2018-04-21T16:07:50Z</time>
      </trkpt>
      <trkpt lat="47.45943" lon="6.91775">
        <ele>553</ele>
        <time>2018-04-21T16:08:04Z</time>
      </trkpt>
      <trkpt lat="47.45938" lon="6.91803">
        <ele>554</ele>
        <time>2018-04-21T16:08:20Z</time>
      </trkpt>
      <trkpt lat="47.45929" lon="6.9183">
        <ele>557</ele>
        <time>2018-04-21T16:08:34Z</time>
      </trkpt>
      <trkpt lat="47.45918" lon="6.91853">
        <ele>558</ele>
        <time>2018-04-21T16:08:50Z</time>
      </trkpt>
      <trkpt lat="47.45907" lon="6.91876">
        <ele>563</ele>
        <time>2018-04-21T16:09:06Z</time>
      </trkpt>
      <trkpt lat="47.45894" lon="6.91896">
        <ele>564</ele>
        <time>2018-04-21T16:09:24Z</time>
      </trkpt>
      <trkpt lat="47.45885" lon="6.91922">
        <ele>565</ele>
        <time>2018-04-21T16:09:40Z</time>
      </trkpt>
      <trkpt lat="47.4588" lon="6.9195">
        <ele>566</ele>
        <time>2018-04-21T16:09:52Z</time>
      </trkpt>
      <trkpt lat="47.45872" lon="6.91977">
        <ele>567</ele>
        <time>2018-04-21T16:10:02Z</time>
      </trkpt>
      <trkpt lat="47.45866" lon="6.92003">
        <ele>568</ele>
        <time>2018-04-21T16:10:10Z</time>
      </trkpt>
      <trkpt lat="47.45857" lon="6.92027">
        <ele>568</ele>
        <time>2018-04-21T16:10:20Z</time>
      </trkpt>
      <trkpt lat="47.45847" lon="6.92054">
        <ele>568</ele>
        <time>2018-04-21T16:10:32Z</time>
      </trkpt>
      <trkpt lat="47.45836" lon="6.92079">
        <ele>570</ele>
        <time>2018-04-21T16:10:44Z</time>
      </trkpt>
      <trkpt lat="47.45823" lon="6.92101">
        <ele>570</ele>
        <time>2018-04-21T16:10:56Z</time>
      </trkpt>
      <trkpt lat="47.45814" lon="6.92126">
        <ele>570</ele>
        <time>2018-04-21T16:11:10Z</time>
      </trkpt>
      <trkpt lat="47.45809" lon="6.92155">
        <ele>569</ele>
        <time>2018-04-21T16:11:26Z</time>
      </trkpt>
      <trkpt lat="47.45808" lon="6.92186">
        <ele>569</ele>
        <time>2018-04-21T16:11:40Z</time>
      </trkpt>
      <trkpt lat="47.45809" lon="6.92217">
        <ele>570</ele>
        <time>2018-04-21T16:11:54Z</time>
      </trkpt>
      <trkpt lat="47.45801" lon="6.92242">
        <ele>570</ele>
        <time>2018-04-21T16:12:06Z</time>
      </trkpt>
      <trkpt lat="47.45787" lon="6.92261">
        <ele>572</ele>
        <time>2018-04-21T16:12:20Z</time>
      </trkpt>
      <trkpt lat="47.45771" lon="6.92278">
        <ele>572</ele>
        <time>2018-04-21T16:12:32Z</time>
      </trkpt>
      <trkpt lat="47.45762" lon="6.92304">
        <ele>573</ele>
        <time>2018-04-21T16:12:46Z</time>
      </trkpt>
      <trkpt lat="47.45749" lon="6.9233">
        <ele>575</ele>
        <time>2018-04-21T16:13:00Z</time>
      </trkpt>
      <trkpt lat="47.4574" lon="6.92356">
        <ele>577</ele>
        <time>2018-04-21T16:13:16Z</time>
      </trkpt>
      <trkpt lat="47.45733" lon="6.92383">
        <ele>579</ele>
        <time>2018-04-21T16:13:30Z</time>
      </trkpt>
      <trkpt lat="47.45722" lon="6.92407">
        <ele>579</ele>
        <time>2018-04-21T16:13:46Z</time>
      </trkpt>
      <trkpt lat="47.45713" lon="6.92435">
        <ele>582</ele>
        <time>2018-04-21T16:14:00Z</time>
      </trkpt>
      <trkpt lat="47.45702" lon="6.92458">
        <ele>582</ele>
        <time>2018-04-21T16:14:20Z</time>
      </trkpt>
      <trkpt lat="47.45693" lon="6.92483">
        <ele>583</ele>
        <time>2018-04-21T16:14:36Z</time>
      </trkpt>
      <trkpt lat="47.45682" lon="6.92505">
        <ele>585</ele>
        <time>2018-04-21T16:14:52Z</time>
      </trkpt>
      <trkpt lat="47.4567" lon="6.92528">
        <ele>585</ele>
        <time>2018-04-21T16:15:08Z</time>
      </trkpt>
      <trkpt lat="47.4566" lon="6.92553">
        <ele>586</ele>
        <time>2018-04-21T16:15:24Z</time>
      </trkpt>
      <trkpt lat="47.45649" lon="6.92573">
        <ele>587</ele>
        <time>2018-04-21T16:15:36Z</time>
      </trkpt>
      <trkpt lat="47.45634" lon="6.92591">
        <ele>588</ele>
        <time>2018-04-21T16:15:48Z</time>
      </trkpt>
      <trkpt lat="47.4562" lon="6.9261">
        <ele>588</ele>
        <time>2018-04-21T16:16:00Z</time>
      </trkpt>
      <trkpt lat="47.45607" lon="6.9263">
        <ele>588</ele>
        <time>2018-04-21T16:16:12Z</time>
      </trkpt>
      <trkpt lat="47.45598" lon="6.92656">
        <ele>587</ele>
        <time>2018-04-21T16:16:24Z</time>
      </trkpt>
      <trkpt lat="47.45594" lon="6.92682">
        <ele>588</ele>
        <time>2018-04-21T16:16:36Z</time>
      </trkpt>
      <trkpt lat="47.45596" lon="6.92711">
        <ele>588</ele>
        <time>2018-04-21T16:16:54Z</time>
      </trkpt>
      <trkpt lat="47.45594" lon="6.9274">
        <ele>588</ele>
        <time>2018-04-21T16:17:12Z</time>
      </trkpt>
      <trkpt lat="47.45593" lon="6.92769">
        <ele>588</ele>
        <time>2018-04-21T16:17:36Z</time>
      </trkpt>
      <trkpt lat="47.45589" lon="6.92796">
        <ele>589</ele>
        <time>2018-04-21T16:17:54Z</time>
      </trkpt>
      <trkpt lat="47.45578" lon="6.9282">
        <ele>588</ele>
        <time>2018-04-21T16:18:16Z</time>
      </trkpt>
      <trkpt lat="47.45568" lon="6.92843">
        <ele>589</ele>
        <time>2018-04-21T16:18:42Z</time>
      </trkpt>
      <trkpt lat="47.45559" lon="6.92867">
        <ele>589</ele>
        <time>2018-04-21T16:19:06Z</time>
      </trkpt>
      <trkpt lat="47.45544" lon="6.92884">
        <ele>589</ele>
        <time>2018-04-21T16:19:24Z</time>
      </trkpt>
      <trkpt lat="47.45529" lon="6.92902">
        <ele>590</ele>
        <time>2018-04-21T16:19:46Z</time>
      </trkpt>
      <trkpt lat="47.45513" lon="6.9292">
        <ele>591</ele>
        <time>2018-04-21T16:20:04Z</time>
      </trkpt>
      <trkpt lat="47.45498" lon="6.92937">
        <ele>593</ele>
        <time>2018-04-21T16:20:26Z</time>
      </trkpt>
      <trkpt lat="47.4549" lon="6.92961">
        <ele>594</ele>
        <time>2018-04-21T16:20:54Z</time>
      </trkpt>
      <trkpt lat="47.45485" lon="6.92987">
        <ele>594</ele>
        <time>2018-04-21T16:21:30Z</time>
      </trkpt>
      <trkpt lat="47.45474" lon="6.93011">
        <ele>595</ele>
        <time>2018-04-21T16:21:44Z</time>
      </trkpt>
      <trkpt lat="47.45462" lon="6.93033">
        <ele>596</ele>
        <time>2018-04-21T16:22:00Z</time>
      </trkpt>
      <trkpt lat="47.45451" lon="6.93058">
        <ele>596</ele>
        <time>2018-04-21T16:22:16Z</time>
      </trkpt>
      <trkpt lat="47.45443" lon="6.93085">
        <ele>597</ele>
        <time>2018-04-21T16:22:32Z</time>
      </trkpt>
      <trkpt lat="47.45444" lon="6.93114">
        <ele>597</ele>
        <time>2018-04-21T16:22:48Z</time>
      </trkpt>
      <trkpt lat="47.45446" lon="6.93141">
        <ele>597</ele>
        <time>2018-04-21T16:23:06Z</time>
      </trkpt>
      <trkpt lat="47.45448" lon="6.9317">
        <ele>597</ele>
        <time>2018-04-21T16:23:28Z</time>
      </trkpt>
      <trkpt lat="47.45446" lon="6.93197">
        <ele>597</ele>
        <time>2018-04-21T16:23:56Z</time>
      </trkpt>
      <trkpt lat="47.45445" lon="6.93225">
        <ele>597</ele>
        <time>2018-04-21T16:24:24Z</time>
      </trkpt>
      <trkpt lat="47.45442" lon="6.93252">
        <ele>596</ele>
        <time>2018-04-21T16:24:48Z</time>
      </trkpt>
      <trkpt lat="47.45443" lon="6.93281">
        <ele>596</ele>
        <time>2018-04-21T16:25:12Z</time>
      </trkpt>
      <trkpt lat="47.45445" lon="6.93308">
        <ele>595</ele>
        <time>2018-04-21T16:25:38Z</time>
      </trkpt>
      <trkpt lat="47.45452" lon="6.93335">
        <ele>593</ele>
        <time>2018-04-21T16:28:54Z</time>
      </trkpt>
      <trkpt lat="47.45461" lon="6.93357">
        <ele>593</ele>
        <time>2018-04-21T16:29:16Z</time>
      </trkpt>
      <trkpt lat="47.45477" lon="6.93372">
        <ele>592</ele>
        <time>2018-04-21T16:30:01Z</time>
      </trkpt>
      <trkpt lat="47.45495" lon="6.93379">
        <ele>592</ele>
        <time>2018-04-21T16:30:33Z</time>
      </trkpt>
      <trkpt lat="47.45515" lon="6.93374">
        <ele>591</ele>
        <time>2018-04-21T16:30:49Z</time>
      </trkpt>
      <trkpt lat="47.45533" lon="6.93366">
        <ele>591</ele>
        <time>2018-04-21T16:31:21Z</time>
      </trkpt>
      <trkpt lat="47.45549" lon="6.93352">
        <ele>591</ele>
        <time>2018-04-21T16:31:37Z</time>
      </trkpt>
      <trkpt lat="47.45565" lon="6.93342">
        <ele>590</ele>
        <time>2018-04-21T16:31:51Z</time>
      </trkpt>
      <trkpt lat="47.45582" lon="6.93325">
        <ele>591</ele>
        <time>2018-04-21T16:32:10Z</time>
      </trkpt>
      <trkpt lat="47.45594" lon="6.93346">
        <ele>591</ele>
        <time>2018-04-21T16:32:40Z</time>
      </trkpt>
      <trkpt lat="47.4559" lon="6.93374">
        <ele>591</ele>
        <time>2018-04-21T16:32:56Z</time>
      </trkpt>
      <trkpt lat="47.45591" lon="6.93402">
        <ele>591</ele>
        <time>2018-04-21T16:33:18Z</time>
      </trkpt>
      <trkpt lat="47.45595" lon="6.93428">
        <ele>591</ele>
        <time>2018-04-21T16:33:32Z</time>
      </trkpt>
      <trkpt lat="47.45606" lon="6.9345">
        <ele>591</ele>
        <time>2018-04-21T16:33:54Z</time>
      </trkpt>
      <trkpt lat="47.45617" lon="6.93473">
        <ele>591</ele>
        <time>2018-04-21T16:34:14Z</time>
      </trkpt>
      <trkpt lat="47.45634" lon="6.93485">
        <ele>591</ele>
        <time>2018-04-21T16:34:38Z</time>
      </trkpt>
      <trkpt lat="47.45647" lon="6.93504">
        <ele>591</ele>
        <time>2018-04-21T16:34:56Z</time>
      </trkpt>
      <trkpt lat="47.45666" lon="6.93515">
        <ele>591</ele>
        <time>2018-04-21T16:35:09Z</time>
      </trkpt>
      <trkpt lat="47.45686" lon="6.93526">
        <ele>585</ele>
        <time>2018-04-21T16:35:23Z</time>
      </trkpt>
      <trkpt lat="47.45704" lon="6.93534">
        <ele>584</ele>
        <time>2018-04-21T16:35:36Z</time>
      </trkpt>
      <trkpt lat="47.45717" lon="6.93556">
        <ele>583</ele>
        <time>2018-04-21T16:35:50Z</time>
      </trkpt>
      <trkpt lat="47.45724" lon="6.93584">
        <ele>581</ele>
        <time>2018-04-21T16:36:04Z</time>
      </trkpt>
      <trkpt lat="47.45729" lon="6.93613">
        <ele>581</ele>
        <time>2018-04-21T16:36:18Z</time>
      </trkpt>
      <trkpt lat="47.45736" lon="6.93641">
        <ele>581</ele>
        <time>2018-04-21T16:36:32Z</time>
      </trkpt>
      <trkpt lat="47.45744" lon="6.9367">
        <ele>578</ele>
        <time>2018-04-21T16:36:46Z</time>
      </trkpt>
      <trkpt lat="47.45749" lon="6.93699">
        <ele>580</ele>
        <time>2018-04-21T16:37:00Z</time>
      </trkpt>
      <trkpt lat="47.45756" lon="6.93725">
        <ele>579</ele>
        <time>2018-04-21T16:37:12Z</time>
      </trkpt>
      <trkpt lat="47.45763" lon="6.9375">
        <ele>581</ele>
        <time>2018-04-21T16:37:24Z</time>
      </trkpt>
      <trkpt lat="47.45766" lon="6.93781">
        <ele>581</ele>
        <time>2018-04-21T16:37:38Z</time>
      </trkpt>
      <trkpt lat="47.46561" lon="6.95305">
        <ele>565</ele>
        <time>2018-04-21T16:49:09Z</time>
      </trkpt>
      <trkpt lat="47.46576" lon="6.95325">
        <ele>565</ele>
        <time>2018-04-21T16:49:23Z</time>
      </trkpt>
      <trkpt lat="47.46588" lon="6.95347">
        <ele>564</ele>
        <time>2018-04-21T16:49:37Z</time>
      </trkpt>
      <trkpt lat="47.46596" lon="6.95372">
        <ele>564</ele>
        <time>2018-04-21T16:49:51Z</time>
      </trkpt>
      <trkpt lat="47.46606" lon="6.95395">
        <ele>564</ele>
        <time>2018-04-21T16:50:05Z</time>
      </trkpt>
      <trkpt lat="47.46618" lon="6.95419">
        <ele>563</ele>
        <time>2018-04-21T16:50:19Z</time>
      </trkpt>
      <trkpt lat="47.46629" lon="6.95443">
        <ele>562</ele>
        <time>2018-04-21T16:50:33Z</time>
      </trkpt>
      <trkpt lat="47.4664" lon="6.95469">
        <ele>561</ele>
        <time>2018-04-21T16:50:49Z</time>
      </trkpt>
      <trkpt lat="47.46651" lon="6.9549">
        <ele>560</ele>
        <time>2018-04-21T16:51:03Z</time>
      </trkpt>
      <trkpt lat="47.46665" lon="6.95513">
        <ele>559</ele>
        <time>2018-04-21T16:51:17Z</time>
      </trkpt>
      <trkpt lat="47.46679" lon="6.95534">
        <ele>555</ele>
        <time>2018-04-21T16:51:33Z</time>
      </trkpt>
      <trkpt lat="47.46694" lon="6.9555">
        <ele>555</ele>
        <time>2018-04-21T16:51:47Z</time>
      </trkpt>
      <trkpt lat="47.46711" lon="6.95566">
        <ele>554</ele>
        <time>2018-04-21T16:52:03Z</time>
      </trkpt>
      <trkpt lat="47.46727" lon="6.95582">
        <ele>554</ele>
        <time>2018-04-21T16:52:17Z</time>
      </trkpt>
      <trkpt lat="47.46742" lon="6.95598">
        <ele>554</ele>
        <time>2018-04-21T16:52:31Z</time>
      </trkpt>
      <trkpt lat="47.46758" lon="6.95616">
        <ele>550</ele>
        <time>2018-04-21T16:52:45Z</time>
      </trkpt>
      <trkpt lat="47.46772" lon="6.95636">
        <ele>550</ele>
        <time>2018-04-21T16:52:59Z</time>
      </trkpt>
      <trkpt lat="47.46785" lon="6.95658">
        <ele>549</ele>
        <time>2018-04-21T16:53:15Z</time>
      </trkpt>
      <trkpt lat="47.46799" lon="6.95678">
        <ele>549</ele>
        <time>2018-04-21T16:53:29Z</time>
      </trkpt>
      <trkpt lat="47.46815" lon="6.95696">
        <ele>548</ele>
        <time>2018-04-21T16:53:43Z</time>
      </trkpt>
      <trkpt lat="47.4683" lon="6.95712">
        <ele>547</ele>
        <time>2018-04-21T16:53:57Z</time>
      </trkpt>
      <trkpt lat="47.46845" lon="6.95727">
        <ele>544</ele>
        <time>2018-04-21T16:54:11Z</time>
      </trkpt>
      <trkpt lat="47.46864" lon="6.9574">
        <ele>544</ele>
        <time>2018-04-21T16:54:27Z</time>
      </trkpt>
      <trkpt lat="47.46882" lon="6.95749">
        <ele>543</ele>
        <time>2018-04-21T16:54:41Z</time>
      </trkpt>
      <trkpt lat="47.46901" lon="6.95758">
        <ele>541</ele>
        <time>2018-04-21T16:54:56Z</time>
      </trkpt>
      <trkpt lat="47.46919" lon="6.95773">
        <ele>541</ele>
        <time>2018-04-21T16:55:12Z</time>
      </trkpt>
      <trkpt lat="47.46936" lon="6.95789">
        <ele>541</ele>
        <time>2018-04-21T16:55:28Z</time>
      </trkpt>
      <trkpt lat="47.46952" lon="6.95804">
        <ele>541</ele>
        <time>2018-04-21T16:55:42Z</time>
      </trkpt>
      <trkpt lat="47.46967" lon="6.95824">
        <ele>542</ele>
        <time>2018-04-21T16:55:56Z</time>
      </trkpt>
      <trkpt lat="47.46979" lon="6.95844">
        <ele>540</ele>
        <time>2018-04-21T16:56:10Z</time>
      </trkpt>
      <trkpt lat="47.46992" lon="6.95866">
        <ele>540</ele>
        <time>2018-04-21T16:56:24Z</time>
      </trkpt>
      <trkpt lat="47.47005" lon="6.95889">
        <ele>540</ele>
        <time>2018-04-21T16:56:38Z</time>
      </trkpt>
      <trkpt lat="47.47016" lon="6.95914">
        <ele>540</ele>
        <time>2018-04-21T16:56:54Z</time>
      </trkpt>
      <trkpt lat="47.47021" lon="6.9594">
        <ele>538</ele>
        <time>2018-04-21T16:57:08Z</time>
      </trkpt>
      <trkpt lat="47.47026" lon="6.95968">
        <ele>537</ele>
        <time>2018-04-21T16:57:22Z</time>
      </trkpt>
      <trkpt lat="47.47033" lon="6.95995">
        <ele>537</ele>
        <time>2018-04-21T16:57:38Z</time>
      </trkpt>
      <trkpt lat="47.47036" lon="6.96025">
        <ele>534</ele>
        <time>2018-04-21T16:57:54Z</time>
      </trkpt>
      <trkpt lat="47.47045" lon="6.96049">
        <ele>534</ele>
        <time>2018-04-21T16:58:08Z</time>
      </trkpt>
      <trkpt lat="47.47053" lon="6.96075">
        <ele>533</ele>
        <time>2018-04-21T16:58:22Z</time>
      </trkpt>
      <trkpt lat="47.47058" lon="6.96103">
        <ele>531</ele>
        <time>2018-04-21T16:58:36Z</time>
      </trkpt>
      <trkpt lat="47.47062" lon="6.9613">
        <ele>531</ele>
        <time>2018-04-21T16:58:50Z</time>
      </trkpt>
      <trkpt lat="47.47068" lon="6.96156">
        <ele>531</ele>
        <time>2018-04-21T16:59:04Z</time>
      </trkpt>
      <trkpt lat="47.47077" lon="6.96181">
        <ele>530</ele>
        <time>2018-04-21T16:59:18Z</time>
      </trkpt>
      <trkpt lat="47.47084" lon="6.96208">
        <ele>531</ele>
        <time>2018-04-21T16:59:34Z</time>
      </trkpt>
      <trkpt lat="47.47092" lon="6.96232">
        <ele>531</ele>
        <time>2018-04-21T16:59:48Z</time>
      </trkpt>
      <trkpt lat="47.47099" lon="6.9626">
        <ele>531</ele>
        <time>2018-04-21T17:00:04Z</time>
      </trkpt>
      <trkpt lat="47.47106" lon="6.96287">
        <ele>530</ele>
        <time>2018-04-21T17:00:20Z</time>
      </trkpt>
      <trkpt lat="47.47097" lon="6.96313">
        <ele>530</ele>
        <time>2018-04-21T17:00:36Z</time>
      </trkpt>
      <trkpt lat="47.47079" lon="6.96329">
        <ele>528</ele>
        <time>2018-04-21T17:00:52Z</time>
      </trkpt>
      <trkpt lat="47.47062" lon="6.96333">
        <ele>527</ele>
        <time>2018-04-21T17:01:06Z</time>
      </trkpt>
    </trkseg>
  </trk>
</gpx>